<?xml version="1.0" encoding="UTF-8" standalone="no" ?>
<gpx xmlns="http://www.topografix.com/GPX/1/1" xmlns:xsi="http://www.w3.org/2001/XMLSchema-instance" xsi:schemaLocation="http://www.topografix.com/GPX/1/1 http://www.topografix.com/GPX/1/1/gpx.xsd" version="1.1" creator="VisuGPX - https://www.visugpx.com">
  <metadata>
    <name>Branson Dorénaz par les Follatères</name>
    <desc><![CDATA[Sortie rando géocaching par beau temps.]]></desc>
  </metadata>
  <trk>
    <name><![CDATA[27-FEV-17 11:27:38]]></name>
    <trkseg>
      <trkpt lat="46.12537" lon="7.08637">
        <ele>487.05</ele>
        <time>2017-02-27T07:22:50Z</time>
      </trkpt>
      <trkpt lat="46.12539" lon="7.08617">
        <ele>470.22</ele>
        <time>2017-02-27T07:23:13Z</time>
      </trkpt>
      <trkpt lat="46.12538" lon="7.08615">
        <ele>468.78</ele>
        <time>2017-02-27T07:23:31Z</time>
      </trkpt>
      <trkpt lat="46.12539" lon="7.08607">
        <ele>463.97</ele>
        <time>2017-02-27T07:23:42Z</time>
      </trkpt>
      <trkpt lat="46.1254" lon="7.08604">
        <ele>463.01</ele>
        <time>2017-02-27T07:23:47Z</time>
      </trkpt>
      <trkpt lat="46.12538" lon="7.08591">
        <ele>463.01</ele>
        <time>2017-02-27T07:23:55Z</time>
      </trkpt>
      <trkpt lat="46.12537" lon="7.08584">
        <ele>461.09</ele>
        <time>2017-02-27T07:23:59Z</time>
      </trkpt>
      <trkpt lat="46.1252" lon="7.0857">
        <ele>463.49</ele>
        <time>2017-02-27T07:24:15Z</time>
      </trkpt>
      <trkpt lat="46.12501" lon="7.08588">
        <ele>464.93</ele>
        <time>2017-02-27T07:24:31Z</time>
      </trkpt>
      <trkpt lat="46.12486" lon="7.08563">
        <ele>463.97</ele>
        <time>2017-02-27T07:24:48Z</time>
      </trkpt>
      <trkpt lat="46.12468" lon="7.08553">
        <ele>466.38</ele>
        <time>2017-02-27T07:25:03Z</time>
      </trkpt>
      <trkpt lat="46.12465" lon="7.08551">
        <ele>466.38</ele>
        <time>2017-02-27T07:25:06Z</time>
      </trkpt>
      <trkpt lat="46.12458" lon="7.08558">
        <ele>466.38</ele>
        <time>2017-02-27T07:25:12Z</time>
      </trkpt>
      <trkpt lat="46.12438" lon="7.08574">
        <ele>465.9</ele>
        <time>2017-02-27T07:25:29Z</time>
      </trkpt>
      <trkpt lat="46.12437" lon="7.08581">
        <ele>464.45</ele>
        <time>2017-02-27T07:25:37Z</time>
      </trkpt>
      <trkpt lat="46.12443" lon="7.08571">
        <ele>462.05</ele>
        <time>2017-02-27T07:25:45Z</time>
      </trkpt>
      <trkpt lat="46.12462" lon="7.08562">
        <ele>464.93</ele>
        <time>2017-02-27T07:26:01Z</time>
      </trkpt>
      <trkpt lat="46.12481" lon="7.08561">
        <ele>465.42</ele>
        <time>2017-02-27T07:26:14Z</time>
      </trkpt>
      <trkpt lat="46.125" lon="7.08585">
        <ele>464.45</ele>
        <time>2017-02-27T07:26:32Z</time>
      </trkpt>
      <trkpt lat="46.12501" lon="7.08587">
        <ele>464.45</ele>
        <time>2017-02-27T07:26:33Z</time>
      </trkpt>
      <trkpt lat="46.12516" lon="7.08569">
        <ele>464.45</ele>
        <time>2017-02-27T07:26:48Z</time>
      </trkpt>
      <trkpt lat="46.12526" lon="7.0855">
        <ele>463.97</ele>
        <time>2017-02-27T07:27:01Z</time>
      </trkpt>
      <trkpt lat="46.12521" lon="7.08537">
        <ele>464.45</ele>
        <time>2017-02-27T07:27:09Z</time>
      </trkpt>
      <trkpt lat="46.12517" lon="7.08531">
        <ele>465.42</ele>
        <time>2017-02-27T07:27:13Z</time>
      </trkpt>
      <trkpt lat="46.12513" lon="7.08523">
        <ele>464.93</ele>
        <time>2017-02-27T07:27:17Z</time>
      </trkpt>
      <trkpt lat="46.12508" lon="7.08516">
        <ele>464.93</ele>
        <time>2017-02-27T07:27:22Z</time>
      </trkpt>
      <trkpt lat="46.12493" lon="7.08486">
        <ele>466.38</ele>
        <time>2017-02-27T07:27:40Z</time>
      </trkpt>
      <trkpt lat="46.12488" lon="7.08468">
        <ele>464.45</ele>
        <time>2017-02-27T07:27:51Z</time>
      </trkpt>
      <trkpt lat="46.12486" lon="7.08456">
        <ele>464.45</ele>
        <time>2017-02-27T07:27:58Z</time>
      </trkpt>
      <trkpt lat="46.12473" lon="7.08443">
        <ele>464.45</ele>
        <time>2017-02-27T07:28:07Z</time>
      </trkpt>
      <trkpt lat="46.12457" lon="7.08428">
        <ele>465.9</ele>
        <time>2017-02-27T07:28:22Z</time>
      </trkpt>
      <trkpt lat="46.12448" lon="7.08419">
        <ele>466.86</ele>
        <time>2017-02-27T07:28:30Z</time>
      </trkpt>
      <trkpt lat="46.12441" lon="7.0841">
        <ele>467.82</ele>
        <time>2017-02-27T07:28:38Z</time>
      </trkpt>
      <trkpt lat="46.12434" lon="7.08395">
        <ele>467.82</ele>
        <time>2017-02-27T07:28:50Z</time>
      </trkpt>
      <trkpt lat="46.12428" lon="7.08385">
        <ele>470.22</ele>
        <time>2017-02-27T07:29:04Z</time>
      </trkpt>
      <trkpt lat="46.12419" lon="7.08374">
        <ele>474.07</ele>
        <time>2017-02-27T07:29:17Z</time>
      </trkpt>
      <trkpt lat="46.1241" lon="7.0836">
        <ele>479.35</ele>
        <time>2017-02-27T07:29:31Z</time>
      </trkpt>
      <trkpt lat="46.12406" lon="7.08346">
        <ele>480.32</ele>
        <time>2017-02-27T07:29:46Z</time>
      </trkpt>
      <trkpt lat="46.12404" lon="7.08331">
        <ele>481.76</ele>
        <time>2017-02-27T07:30:01Z</time>
      </trkpt>
      <trkpt lat="46.12396" lon="7.08315">
        <ele>480.8</ele>
        <time>2017-02-27T07:30:18Z</time>
      </trkpt>
      <trkpt lat="46.12388" lon="7.08297">
        <ele>482.72</ele>
        <time>2017-02-27T07:30:31Z</time>
      </trkpt>
      <trkpt lat="46.12384" lon="7.08284">
        <ele>484.16</ele>
        <time>2017-02-27T07:30:42Z</time>
      </trkpt>
      <trkpt lat="46.12382" lon="7.08267">
        <ele>480.32</ele>
        <time>2017-02-27T07:30:54Z</time>
      </trkpt>
      <trkpt lat="46.12381" lon="7.08259">
        <ele>477.43</ele>
        <time>2017-02-27T07:30:59Z</time>
      </trkpt>
      <trkpt lat="46.12372" lon="7.08238">
        <ele>478.39</ele>
        <time>2017-02-27T07:31:13Z</time>
      </trkpt>
      <trkpt lat="46.12362" lon="7.08219">
        <ele>480.8</ele>
        <time>2017-02-27T07:31:27Z</time>
      </trkpt>
      <trkpt lat="46.12352" lon="7.08206">
        <ele>484.64</ele>
        <time>2017-02-27T07:31:37Z</time>
      </trkpt>
      <trkpt lat="46.12341" lon="7.08182">
        <ele>490.89</ele>
        <time>2017-02-27T07:31:50Z</time>
      </trkpt>
      <trkpt lat="46.12343" lon="7.08157">
        <ele>489.45</ele>
        <time>2017-02-27T07:32:05Z</time>
      </trkpt>
      <trkpt lat="46.12347" lon="7.08138">
        <ele>488.49</ele>
        <time>2017-02-27T07:32:17Z</time>
      </trkpt>
      <trkpt lat="46.12345" lon="7.0811">
        <ele>491.37</ele>
        <time>2017-02-27T07:32:32Z</time>
      </trkpt>
      <trkpt lat="46.12347" lon="7.08098">
        <ele>494.26</ele>
        <time>2017-02-27T07:32:40Z</time>
      </trkpt>
      <trkpt lat="46.12346" lon="7.08079">
        <ele>495.22</ele>
        <time>2017-02-27T07:32:51Z</time>
      </trkpt>
      <trkpt lat="46.12345" lon="7.08077">
        <ele>495.22</ele>
        <time>2017-02-27T07:32:52Z</time>
      </trkpt>
      <trkpt lat="46.12345" lon="7.08073">
        <ele>495.22</ele>
        <time>2017-02-27T07:32:54Z</time>
      </trkpt>
      <trkpt lat="46.12343" lon="7.08053">
        <ele>490.89</ele>
        <time>2017-02-27T07:33:06Z</time>
      </trkpt>
      <trkpt lat="46.12338" lon="7.08031">
        <ele>491.37</ele>
        <time>2017-02-27T07:33:18Z</time>
      </trkpt>
      <trkpt lat="46.12339" lon="7.08011">
        <ele>491.37</ele>
        <time>2017-02-27T07:33:32Z</time>
      </trkpt>
      <trkpt lat="46.12337" lon="7.07985">
        <ele>493.77</ele>
        <time>2017-02-27T07:33:48Z</time>
      </trkpt>
      <trkpt lat="46.1233" lon="7.07962">
        <ele>495.7</ele>
        <time>2017-02-27T07:34:01Z</time>
      </trkpt>
      <trkpt lat="46.12329" lon="7.07938">
        <ele>497.14</ele>
        <time>2017-02-27T07:34:13Z</time>
      </trkpt>
      <trkpt lat="46.12331" lon="7.07927">
        <ele>497.62</ele>
        <time>2017-02-27T07:34:24Z</time>
      </trkpt>
      <trkpt lat="46.1234" lon="7.07913">
        <ele>500.02</ele>
        <time>2017-02-27T07:34:40Z</time>
      </trkpt>
      <trkpt lat="46.12342" lon="7.07902">
        <ele>500.5</ele>
        <time>2017-02-27T07:34:52Z</time>
      </trkpt>
      <trkpt lat="46.12343" lon="7.07888">
        <ele>503.39</ele>
        <time>2017-02-27T07:35:05Z</time>
      </trkpt>
      <trkpt lat="46.12343" lon="7.07876">
        <ele>508.67</ele>
        <time>2017-02-27T07:35:17Z</time>
      </trkpt>
      <trkpt lat="46.12343" lon="7.07871">
        <ele>512.04</ele>
        <time>2017-02-27T07:35:22Z</time>
      </trkpt>
      <trkpt lat="46.12343" lon="7.07858">
        <ele>515.88</ele>
        <time>2017-02-27T07:35:34Z</time>
      </trkpt>
      <trkpt lat="46.12344" lon="7.07853">
        <ele>516.85</ele>
        <time>2017-02-27T07:35:40Z</time>
      </trkpt>
      <trkpt lat="46.1235" lon="7.07839">
        <ele>518.29</ele>
        <time>2017-02-27T07:35:53Z</time>
      </trkpt>
      <trkpt lat="46.12349" lon="7.07821">
        <ele>519.73</ele>
        <time>2017-02-27T07:36:06Z</time>
      </trkpt>
      <trkpt lat="46.12352" lon="7.07805">
        <ele>518.29</ele>
        <time>2017-02-27T07:36:20Z</time>
      </trkpt>
      <trkpt lat="46.12353" lon="7.0779">
        <ele>520.21</ele>
        <time>2017-02-27T07:36:31Z</time>
      </trkpt>
      <trkpt lat="46.12356" lon="7.07774">
        <ele>522.13</ele>
        <time>2017-02-27T07:36:43Z</time>
      </trkpt>
      <trkpt lat="46.12363" lon="7.07761">
        <ele>523.09</ele>
        <time>2017-02-27T07:36:54Z</time>
      </trkpt>
      <trkpt lat="46.12367" lon="7.07747">
        <ele>525.02</ele>
        <time>2017-02-27T07:37:05Z</time>
      </trkpt>
      <trkpt lat="46.12369" lon="7.07738">
        <ele>525.02</ele>
        <time>2017-02-27T07:37:12Z</time>
      </trkpt>
      <trkpt lat="46.12369" lon="7.0773">
        <ele>525.02</ele>
        <time>2017-02-27T07:37:18Z</time>
      </trkpt>
      <trkpt lat="46.1237" lon="7.07713">
        <ele>526.94</ele>
        <time>2017-02-27T07:37:30Z</time>
      </trkpt>
      <trkpt lat="46.12371" lon="7.07704">
        <ele>527.9</ele>
        <time>2017-02-27T07:37:41Z</time>
      </trkpt>
      <trkpt lat="46.12372" lon="7.07698">
        <ele>528.38</ele>
        <time>2017-02-27T07:37:48Z</time>
      </trkpt>
      <trkpt lat="46.12374" lon="7.0769">
        <ele>528.38</ele>
        <time>2017-02-27T07:37:56Z</time>
      </trkpt>
      <trkpt lat="46.12379" lon="7.0768">
        <ele>528.86</ele>
        <time>2017-02-27T07:38:06Z</time>
      </trkpt>
      <trkpt lat="46.1238" lon="7.07678">
        <ele>528.86</ele>
        <time>2017-02-27T07:38:08Z</time>
      </trkpt>
      <trkpt lat="46.1238" lon="7.07673">
        <ele>528.38</ele>
        <time>2017-02-27T07:38:12Z</time>
      </trkpt>
      <trkpt lat="46.1238" lon="7.07658">
        <ele>528.38</ele>
        <time>2017-02-27T07:38:24Z</time>
      </trkpt>
      <trkpt lat="46.1238" lon="7.07657">
        <ele>528.38</ele>
        <time>2017-02-27T07:38:25Z</time>
      </trkpt>
      <trkpt lat="46.12379" lon="7.07645">
        <ele>527.42</ele>
        <time>2017-02-27T07:38:37Z</time>
      </trkpt>
      <trkpt lat="46.12378" lon="7.0764">
        <ele>527.42</ele>
        <time>2017-02-27T07:38:41Z</time>
      </trkpt>
      <trkpt lat="46.12375" lon="7.07626">
        <ele>526.94</ele>
        <time>2017-02-27T07:38:51Z</time>
      </trkpt>
      <trkpt lat="46.12373" lon="7.07619">
        <ele>526.46</ele>
        <time>2017-02-27T07:38:55Z</time>
      </trkpt>
      <trkpt lat="46.12368" lon="7.07602">
        <ele>525.98</ele>
        <time>2017-02-27T07:39:05Z</time>
      </trkpt>
      <trkpt lat="46.12363" lon="7.07585">
        <ele>525.5</ele>
        <time>2017-02-27T07:39:15Z</time>
      </trkpt>
      <trkpt lat="46.12359" lon="7.07571">
        <ele>525.02</ele>
        <time>2017-02-27T07:39:23Z</time>
      </trkpt>
      <trkpt lat="46.12357" lon="7.07559">
        <ele>524.54</ele>
        <time>2017-02-27T07:39:31Z</time>
      </trkpt>
      <trkpt lat="46.12354" lon="7.07548">
        <ele>524.06</ele>
        <time>2017-02-27T07:39:39Z</time>
      </trkpt>
      <trkpt lat="46.12352" lon="7.07539">
        <ele>523.58</ele>
        <time>2017-02-27T07:39:46Z</time>
      </trkpt>
      <trkpt lat="46.12351" lon="7.07533">
        <ele>523.09</ele>
        <time>2017-02-27T07:39:51Z</time>
      </trkpt>
      <trkpt lat="46.1235" lon="7.07524">
        <ele>523.09</ele>
        <time>2017-02-27T07:39:58Z</time>
      </trkpt>
      <trkpt lat="46.12347" lon="7.07509">
        <ele>522.61</ele>
        <time>2017-02-27T07:40:10Z</time>
      </trkpt>
      <trkpt lat="46.12345" lon="7.07498">
        <ele>522.61</ele>
        <time>2017-02-27T07:40:20Z</time>
      </trkpt>
      <trkpt lat="46.12344" lon="7.07488">
        <ele>522.13</ele>
        <time>2017-02-27T07:40:31Z</time>
      </trkpt>
      <trkpt lat="46.12341" lon="7.07482">
        <ele>522.13</ele>
        <time>2017-02-27T07:40:36Z</time>
      </trkpt>
      <trkpt lat="46.12334" lon="7.07472">
        <ele>521.65</ele>
        <time>2017-02-27T07:40:46Z</time>
      </trkpt>
      <trkpt lat="46.1233" lon="7.07463">
        <ele>521.17</ele>
        <time>2017-02-27T07:40:52Z</time>
      </trkpt>
      <trkpt lat="46.12326" lon="7.07457">
        <ele>521.17</ele>
        <time>2017-02-27T07:40:59Z</time>
      </trkpt>
      <trkpt lat="46.12318" lon="7.07443">
        <ele>520.69</ele>
        <time>2017-02-27T07:41:08Z</time>
      </trkpt>
      <trkpt lat="46.12313" lon="7.07434">
        <ele>520.21</ele>
        <time>2017-02-27T07:41:17Z</time>
      </trkpt>
      <trkpt lat="46.12307" lon="7.07421">
        <ele>519.73</ele>
        <time>2017-02-27T07:41:28Z</time>
      </trkpt>
      <trkpt lat="46.12299" lon="7.07396">
        <ele>519.25</ele>
        <time>2017-02-27T07:41:39Z</time>
      </trkpt>
      <trkpt lat="46.12298" lon="7.07393">
        <ele>519.25</ele>
        <time>2017-02-27T07:41:41Z</time>
      </trkpt>
      <trkpt lat="46.12297" lon="7.07388">
        <ele>519.25</ele>
        <time>2017-02-27T07:41:43Z</time>
      </trkpt>
      <trkpt lat="46.12291" lon="7.07373">
        <ele>518.77</ele>
        <time>2017-02-27T07:41:52Z</time>
      </trkpt>
      <trkpt lat="46.1229" lon="7.07361">
        <ele>518.29</ele>
        <time>2017-02-27T07:42:02Z</time>
      </trkpt>
      <trkpt lat="46.12286" lon="7.07342">
        <ele>518.29</ele>
        <time>2017-02-27T07:42:14Z</time>
      </trkpt>
      <trkpt lat="46.12285" lon="7.07337">
        <ele>517.81</ele>
        <time>2017-02-27T07:42:16Z</time>
      </trkpt>
      <trkpt lat="46.12281" lon="7.07318">
        <ele>517.33</ele>
        <time>2017-02-27T07:42:27Z</time>
      </trkpt>
      <trkpt lat="46.12281" lon="7.07315">
        <ele>517.33</ele>
        <time>2017-02-27T07:42:29Z</time>
      </trkpt>
      <trkpt lat="46.12276" lon="7.07299">
        <ele>516.85</ele>
        <time>2017-02-27T07:42:41Z</time>
      </trkpt>
      <trkpt lat="46.12271" lon="7.07287">
        <ele>516.37</ele>
        <time>2017-02-27T07:42:51Z</time>
      </trkpt>
      <trkpt lat="46.12268" lon="7.07277">
        <ele>515.88</ele>
        <time>2017-02-27T07:43:01Z</time>
      </trkpt>
      <trkpt lat="46.1226" lon="7.07268">
        <ele>515.4</ele>
        <time>2017-02-27T07:43:07Z</time>
      </trkpt>
      <trkpt lat="46.12256" lon="7.07266">
        <ele>514.92</ele>
        <time>2017-02-27T07:43:10Z</time>
      </trkpt>
      <trkpt lat="46.12248" lon="7.07255">
        <ele>514.44</ele>
        <time>2017-02-27T07:43:19Z</time>
      </trkpt>
      <trkpt lat="46.12244" lon="7.07248">
        <ele>514.44</ele>
        <time>2017-02-27T07:43:23Z</time>
      </trkpt>
      <trkpt lat="46.12239" lon="7.0723">
        <ele>514.44</ele>
        <time>2017-02-27T07:43:36Z</time>
      </trkpt>
      <trkpt lat="46.12237" lon="7.07213">
        <ele>514.92</ele>
        <time>2017-02-27T07:43:49Z</time>
      </trkpt>
      <trkpt lat="46.12216" lon="7.07192">
        <ele>558.18</ele>
        <time>2017-02-27T07:44:03Z</time>
      </trkpt>
      <trkpt lat="46.12222" lon="7.07197">
        <ele>561.55</ele>
        <time>2017-02-27T07:44:16Z</time>
      </trkpt>
      <trkpt lat="46.12226" lon="7.07189">
        <ele>561.07</ele>
        <time>2017-02-27T07:44:31Z</time>
      </trkpt>
      <trkpt lat="46.12223" lon="7.07177">
        <ele>560.59</ele>
        <time>2017-02-27T07:44:43Z</time>
      </trkpt>
      <trkpt lat="46.12219" lon="7.0717">
        <ele>563.47</ele>
        <time>2017-02-27T07:44:55Z</time>
      </trkpt>
      <trkpt lat="46.1221" lon="7.07164">
        <ele>565.39</ele>
        <time>2017-02-27T07:45:06Z</time>
      </trkpt>
      <trkpt lat="46.12206" lon="7.07148">
        <ele>565.39</ele>
        <time>2017-02-27T07:45:19Z</time>
      </trkpt>
      <trkpt lat="46.12204" lon="7.0713">
        <ele>566.83</ele>
        <time>2017-02-27T07:45:31Z</time>
      </trkpt>
      <trkpt lat="46.12198" lon="7.07102">
        <ele>568.76</ele>
        <time>2017-02-27T07:45:46Z</time>
      </trkpt>
      <trkpt lat="46.12187" lon="7.07078">
        <ele>575.01</ele>
        <time>2017-02-27T07:46:01Z</time>
      </trkpt>
      <trkpt lat="46.12182" lon="7.07068">
        <ele>580.29</ele>
        <time>2017-02-27T07:46:07Z</time>
      </trkpt>
      <trkpt lat="46.12186" lon="7.07051">
        <ele>581.25</ele>
        <time>2017-02-27T07:46:20Z</time>
      </trkpt>
      <trkpt lat="46.12193" lon="7.07047">
        <ele>584.62</ele>
        <time>2017-02-27T07:46:30Z</time>
      </trkpt>
      <trkpt lat="46.12195" lon="7.07056">
        <ele>584.62</ele>
        <time>2017-02-27T07:46:43Z</time>
      </trkpt>
      <trkpt lat="46.12193" lon="7.07051">
        <ele>584.62</ele>
        <time>2017-02-27T07:47:14Z</time>
      </trkpt>
      <trkpt lat="46.12191" lon="7.07049">
        <ele>583.18</ele>
        <time>2017-02-27T07:47:17Z</time>
      </trkpt>
      <trkpt lat="46.12189" lon="7.07051">
        <ele>581.73</ele>
        <time>2017-02-27T07:47:22Z</time>
      </trkpt>
      <trkpt lat="46.12184" lon="7.07054">
        <ele>581.25</ele>
        <time>2017-02-27T07:47:39Z</time>
      </trkpt>
      <trkpt lat="46.12185" lon="7.07052">
        <ele>582.22</ele>
        <time>2017-02-27T07:47:55Z</time>
      </trkpt>
      <trkpt lat="46.12186" lon="7.07047">
        <ele>582.22</ele>
        <time>2017-02-27T07:47:59Z</time>
      </trkpt>
      <trkpt lat="46.12196" lon="7.07035">
        <ele>578.85</ele>
        <time>2017-02-27T07:48:11Z</time>
      </trkpt>
      <trkpt lat="46.12198" lon="7.07029">
        <ele>576.93</ele>
        <time>2017-02-27T07:48:17Z</time>
      </trkpt>
      <trkpt lat="46.12209" lon="7.07031">
        <ele>571.16</ele>
        <time>2017-02-27T07:48:33Z</time>
      </trkpt>
      <trkpt lat="46.1221" lon="7.07031">
        <ele>569.24</ele>
        <time>2017-02-27T07:48:56Z</time>
      </trkpt>
      <trkpt lat="46.12218" lon="7.07033">
        <ele>571.64</ele>
        <time>2017-02-27T07:49:14Z</time>
      </trkpt>
      <trkpt lat="46.12224" lon="7.0703">
        <ele>570.68</ele>
        <time>2017-02-27T07:49:21Z</time>
      </trkpt>
      <trkpt lat="46.12237" lon="7.07042">
        <ele>571.16</ele>
        <time>2017-02-27T07:49:35Z</time>
      </trkpt>
      <trkpt lat="46.12249" lon="7.07047">
        <ele>572.6</ele>
        <time>2017-02-27T07:49:48Z</time>
      </trkpt>
      <trkpt lat="46.12259" lon="7.07047">
        <ele>576.93</ele>
        <time>2017-02-27T07:50:02Z</time>
      </trkpt>
      <trkpt lat="46.12268" lon="7.07047">
        <ele>580.77</ele>
        <time>2017-02-27T07:50:16Z</time>
      </trkpt>
      <trkpt lat="46.12266" lon="7.07045">
        <ele>584.62</ele>
        <time>2017-02-27T07:50:28Z</time>
      </trkpt>
      <trkpt lat="46.12268" lon="7.07046">
        <ele>582.7</ele>
        <time>2017-02-27T07:50:46Z</time>
      </trkpt>
      <trkpt lat="46.12269" lon="7.07046">
        <ele>584.14</ele>
        <time>2017-02-27T07:50:58Z</time>
      </trkpt>
      <trkpt lat="46.12276" lon="7.07052">
        <ele>584.14</ele>
        <time>2017-02-27T07:51:12Z</time>
      </trkpt>
      <trkpt lat="46.12281" lon="7.07059">
        <ele>585.1</ele>
        <time>2017-02-27T07:51:22Z</time>
      </trkpt>
      <trkpt lat="46.12288" lon="7.07057">
        <ele>584.62</ele>
        <time>2017-02-27T07:51:32Z</time>
      </trkpt>
      <trkpt lat="46.12292" lon="7.07054">
        <ele>584.14</ele>
        <time>2017-02-27T07:51:36Z</time>
      </trkpt>
      <trkpt lat="46.12298" lon="7.07052">
        <ele>582.7</ele>
        <time>2017-02-27T07:51:46Z</time>
      </trkpt>
      <trkpt lat="46.12317" lon="7.07046">
        <ele>580.29</ele>
        <time>2017-02-27T07:51:59Z</time>
      </trkpt>
      <trkpt lat="46.1232" lon="7.07045">
        <ele>580.29</ele>
        <time>2017-02-27T07:52:01Z</time>
      </trkpt>
      <trkpt lat="46.12325" lon="7.07042">
        <ele>579.81</ele>
        <time>2017-02-27T07:52:06Z</time>
      </trkpt>
      <trkpt lat="46.12353" lon="7.07032">
        <ele>577.41</ele>
        <time>2017-02-27T07:52:27Z</time>
      </trkpt>
      <trkpt lat="46.12362" lon="7.07032">
        <ele>577.41</ele>
        <time>2017-02-27T07:52:35Z</time>
      </trkpt>
      <trkpt lat="46.12375" lon="7.07028">
        <ele>575.97</ele>
        <time>2017-02-27T07:52:47Z</time>
      </trkpt>
      <trkpt lat="46.1238" lon="7.07023">
        <ele>574.53</ele>
        <time>2017-02-27T07:52:56Z</time>
      </trkpt>
      <trkpt lat="46.12387" lon="7.0702">
        <ele>574.04</ele>
        <time>2017-02-27T07:53:01Z</time>
      </trkpt>
      <trkpt lat="46.12393" lon="7.07019">
        <ele>573.56</ele>
        <time>2017-02-27T07:53:04Z</time>
      </trkpt>
      <trkpt lat="46.12398" lon="7.07017">
        <ele>572.6</ele>
        <time>2017-02-27T07:53:07Z</time>
      </trkpt>
      <trkpt lat="46.12408" lon="7.07011">
        <ele>572.12</ele>
        <time>2017-02-27T07:53:14Z</time>
      </trkpt>
      <trkpt lat="46.12413" lon="7.07009">
        <ele>571.16</ele>
        <time>2017-02-27T07:53:19Z</time>
      </trkpt>
      <trkpt lat="46.12414" lon="7.07006">
        <ele>570.68</ele>
        <time>2017-02-27T07:53:21Z</time>
      </trkpt>
      <trkpt lat="46.12421" lon="7.07001">
        <ele>570.2</ele>
        <time>2017-02-27T07:53:26Z</time>
      </trkpt>
      <trkpt lat="46.12427" lon="7.07001">
        <ele>569.72</ele>
        <time>2017-02-27T07:53:31Z</time>
      </trkpt>
      <trkpt lat="46.12431" lon="7.06997">
        <ele>569.24</ele>
        <time>2017-02-27T07:53:34Z</time>
      </trkpt>
      <trkpt lat="46.12439" lon="7.06995">
        <ele>567.8</ele>
        <time>2017-02-27T07:53:40Z</time>
      </trkpt>
      <trkpt lat="46.12445" lon="7.06981">
        <ele>567.32</ele>
        <time>2017-02-27T07:53:47Z</time>
      </trkpt>
      <trkpt lat="46.12447" lon="7.06977">
        <ele>566.83</ele>
        <time>2017-02-27T07:53:49Z</time>
      </trkpt>
      <trkpt lat="46.12448" lon="7.06969">
        <ele>566.35</ele>
        <time>2017-02-27T07:53:52Z</time>
      </trkpt>
      <trkpt lat="46.12453" lon="7.06955">
        <ele>565.87</ele>
        <time>2017-02-27T07:53:59Z</time>
      </trkpt>
      <trkpt lat="46.12462" lon="7.06942">
        <ele>564.91</ele>
        <time>2017-02-27T07:54:09Z</time>
      </trkpt>
      <trkpt lat="46.12469" lon="7.06924">
        <ele>564.91</ele>
        <time>2017-02-27T07:54:20Z</time>
      </trkpt>
      <trkpt lat="46.12473" lon="7.06916">
        <ele>564.43</ele>
        <time>2017-02-27T07:54:29Z</time>
      </trkpt>
      <trkpt lat="46.12478" lon="7.06915">
        <ele>564.91</ele>
        <time>2017-02-27T07:54:33Z</time>
      </trkpt>
      <trkpt lat="46.12486" lon="7.06905">
        <ele>563.95</ele>
        <time>2017-02-27T07:54:41Z</time>
      </trkpt>
      <trkpt lat="46.12497" lon="7.06893">
        <ele>562.51</ele>
        <time>2017-02-27T07:54:51Z</time>
      </trkpt>
      <trkpt lat="46.125" lon="7.06887">
        <ele>561.55</ele>
        <time>2017-02-27T07:54:55Z</time>
      </trkpt>
      <trkpt lat="46.12507" lon="7.06879">
        <ele>560.59</ele>
        <time>2017-02-27T07:55:01Z</time>
      </trkpt>
      <trkpt lat="46.12516" lon="7.06862">
        <ele>559.14</ele>
        <time>2017-02-27T07:55:12Z</time>
      </trkpt>
      <trkpt lat="46.12525" lon="7.06852">
        <ele>560.11</ele>
        <time>2017-02-27T07:55:21Z</time>
      </trkpt>
      <trkpt lat="46.12535" lon="7.06843">
        <ele>558.18</ele>
        <time>2017-02-27T07:55:32Z</time>
      </trkpt>
      <trkpt lat="46.12542" lon="7.06827">
        <ele>556.26</ele>
        <time>2017-02-27T07:55:43Z</time>
      </trkpt>
      <trkpt lat="46.12547" lon="7.06821">
        <ele>553.38</ele>
        <time>2017-02-27T07:55:50Z</time>
      </trkpt>
      <trkpt lat="46.12552" lon="7.06807">
        <ele>540.88</ele>
        <time>2017-02-27T07:56:02Z</time>
      </trkpt>
      <trkpt lat="46.12555" lon="7.06802">
        <ele>539.92</ele>
        <time>2017-02-27T07:56:06Z</time>
      </trkpt>
      <trkpt lat="46.12568" lon="7.06794">
        <ele>540.88</ele>
        <time>2017-02-27T07:56:17Z</time>
      </trkpt>
      <trkpt lat="46.12572" lon="7.0679">
        <ele>539.92</ele>
        <time>2017-02-27T07:56:22Z</time>
      </trkpt>
      <trkpt lat="46.12585" lon="7.06782">
        <ele>537.03</ele>
        <time>2017-02-27T07:56:36Z</time>
      </trkpt>
      <trkpt lat="46.12595" lon="7.06772">
        <ele>535.11</ele>
        <time>2017-02-27T07:56:45Z</time>
      </trkpt>
      <trkpt lat="46.12608" lon="7.0676">
        <ele>535.11</ele>
        <time>2017-02-27T07:56:55Z</time>
      </trkpt>
      <trkpt lat="46.12609" lon="7.06757">
        <ele>535.11</ele>
        <time>2017-02-27T07:56:57Z</time>
      </trkpt>
      <trkpt lat="46.12618" lon="7.06747">
        <ele>532.23</ele>
        <time>2017-02-27T07:57:05Z</time>
      </trkpt>
      <trkpt lat="46.12632" lon="7.06728">
        <ele>527.9</ele>
        <time>2017-02-27T07:57:19Z</time>
      </trkpt>
      <trkpt lat="46.12639" lon="7.06715">
        <ele>526.46</ele>
        <time>2017-02-27T07:57:28Z</time>
      </trkpt>
      <trkpt lat="46.12655" lon="7.06699">
        <ele>525.02</ele>
        <time>2017-02-27T07:57:42Z</time>
      </trkpt>
      <trkpt lat="46.12662" lon="7.0669">
        <ele>525.98</ele>
        <time>2017-02-27T07:57:55Z</time>
      </trkpt>
      <trkpt lat="46.12678" lon="7.06679">
        <ele>524.54</ele>
        <time>2017-02-27T07:58:07Z</time>
      </trkpt>
      <trkpt lat="46.12686" lon="7.06671">
        <ele>524.54</ele>
        <time>2017-02-27T07:58:14Z</time>
      </trkpt>
      <trkpt lat="46.12701" lon="7.0666">
        <ele>523.58</ele>
        <time>2017-02-27T07:58:27Z</time>
      </trkpt>
      <trkpt lat="46.12705" lon="7.06654">
        <ele>523.09</ele>
        <time>2017-02-27T07:58:31Z</time>
      </trkpt>
      <trkpt lat="46.12712" lon="7.06649">
        <ele>522.13</ele>
        <time>2017-02-27T07:58:36Z</time>
      </trkpt>
      <trkpt lat="46.12719" lon="7.06641">
        <ele>520.69</ele>
        <time>2017-02-27T07:58:43Z</time>
      </trkpt>
      <trkpt lat="46.12727" lon="7.06629">
        <ele>518.77</ele>
        <time>2017-02-27T07:58:57Z</time>
      </trkpt>
      <trkpt lat="46.12729" lon="7.06627">
        <ele>518.29</ele>
        <time>2017-02-27T07:58:59Z</time>
      </trkpt>
      <trkpt lat="46.12732" lon="7.06625">
        <ele>516.85</ele>
        <time>2017-02-27T07:59:03Z</time>
      </trkpt>
      <trkpt lat="46.12741" lon="7.06605">
        <ele>515.4</ele>
        <time>2017-02-27T07:59:15Z</time>
      </trkpt>
      <trkpt lat="46.12752" lon="7.06587">
        <ele>513.96</ele>
        <time>2017-02-27T07:59:26Z</time>
      </trkpt>
      <trkpt lat="46.12756" lon="7.06582">
        <ele>513.48</ele>
        <time>2017-02-27T07:59:29Z</time>
      </trkpt>
      <trkpt lat="46.12764" lon="7.06569">
        <ele>512.52</ele>
        <time>2017-02-27T07:59:37Z</time>
      </trkpt>
      <trkpt lat="46.12771" lon="7.06561">
        <ele>512.04</ele>
        <time>2017-02-27T07:59:43Z</time>
      </trkpt>
      <trkpt lat="46.12776" lon="7.0655">
        <ele>512.04</ele>
        <time>2017-02-27T07:59:51Z</time>
      </trkpt>
      <trkpt lat="46.12782" lon="7.06547">
        <ele>511.56</ele>
        <time>2017-02-27T07:59:55Z</time>
      </trkpt>
      <trkpt lat="46.12794" lon="7.06521">
        <ele>509.16</ele>
        <time>2017-02-27T08:00:10Z</time>
      </trkpt>
      <trkpt lat="46.12811" lon="7.06505">
        <ele>507.71</ele>
        <time>2017-02-27T08:00:24Z</time>
      </trkpt>
      <trkpt lat="46.12821" lon="7.06494">
        <ele>505.31</ele>
        <time>2017-02-27T08:00:33Z</time>
      </trkpt>
      <trkpt lat="46.12823" lon="7.06491">
        <ele>505.31</ele>
        <time>2017-02-27T08:00:35Z</time>
      </trkpt>
      <trkpt lat="46.12836" lon="7.06473">
        <ele>505.31</ele>
        <time>2017-02-27T08:00:47Z</time>
      </trkpt>
      <trkpt lat="46.12841" lon="7.06469">
        <ele>504.35</ele>
        <time>2017-02-27T08:00:52Z</time>
      </trkpt>
      <trkpt lat="46.12852" lon="7.06453">
        <ele>502.91</ele>
        <time>2017-02-27T08:01:05Z</time>
      </trkpt>
      <trkpt lat="46.12859" lon="7.06443">
        <ele>501.95</ele>
        <time>2017-02-27T08:01:13Z</time>
      </trkpt>
      <trkpt lat="46.12864" lon="7.06431">
        <ele>500.98</ele>
        <time>2017-02-27T08:01:21Z</time>
      </trkpt>
      <trkpt lat="46.12867" lon="7.06429">
        <ele>500.02</ele>
        <time>2017-02-27T08:01:23Z</time>
      </trkpt>
      <trkpt lat="46.12872" lon="7.06424">
        <ele>499.06</ele>
        <time>2017-02-27T08:01:28Z</time>
      </trkpt>
      <trkpt lat="46.12876" lon="7.06421">
        <ele>498.58</ele>
        <time>2017-02-27T08:01:32Z</time>
      </trkpt>
      <trkpt lat="46.12885" lon="7.0641">
        <ele>496.66</ele>
        <time>2017-02-27T08:01:42Z</time>
      </trkpt>
      <trkpt lat="46.12893" lon="7.06398">
        <ele>494.74</ele>
        <time>2017-02-27T08:01:53Z</time>
      </trkpt>
      <trkpt lat="46.12902" lon="7.06386">
        <ele>494.26</ele>
        <time>2017-02-27T08:02:03Z</time>
      </trkpt>
      <trkpt lat="46.12906" lon="7.06384">
        <ele>493.77</ele>
        <time>2017-02-27T08:02:06Z</time>
      </trkpt>
      <trkpt lat="46.12906" lon="7.06372">
        <ele>491.85</ele>
        <time>2017-02-27T08:02:10Z</time>
      </trkpt>
      <trkpt lat="46.12914" lon="7.06354">
        <ele>489.93</ele>
        <time>2017-02-27T08:02:21Z</time>
      </trkpt>
      <trkpt lat="46.12916" lon="7.06351">
        <ele>489.93</ele>
        <time>2017-02-27T08:02:23Z</time>
      </trkpt>
      <trkpt lat="46.12921" lon="7.06345">
        <ele>488.97</ele>
        <time>2017-02-27T08:02:28Z</time>
      </trkpt>
      <trkpt lat="46.12933" lon="7.06325">
        <ele>491.37</ele>
        <time>2017-02-27T08:02:40Z</time>
      </trkpt>
      <trkpt lat="46.1294" lon="7.06308">
        <ele>488.01</ele>
        <time>2017-02-27T08:02:51Z</time>
      </trkpt>
      <trkpt lat="46.12955" lon="7.06295">
        <ele>486.08</ele>
        <time>2017-02-27T08:03:04Z</time>
      </trkpt>
      <trkpt lat="46.12962" lon="7.06287">
        <ele>484.16</ele>
        <time>2017-02-27T08:03:10Z</time>
      </trkpt>
      <trkpt lat="46.12967" lon="7.06282">
        <ele>483.68</ele>
        <time>2017-02-27T08:03:15Z</time>
      </trkpt>
      <trkpt lat="46.12978" lon="7.06266">
        <ele>480.8</ele>
        <time>2017-02-27T08:03:29Z</time>
      </trkpt>
      <trkpt lat="46.12986" lon="7.06253">
        <ele>477.91</ele>
        <time>2017-02-27T08:03:40Z</time>
      </trkpt>
      <trkpt lat="46.12993" lon="7.06244">
        <ele>476.47</ele>
        <time>2017-02-27T08:03:47Z</time>
      </trkpt>
      <trkpt lat="46.12998" lon="7.06235">
        <ele>475.51</ele>
        <time>2017-02-27T08:03:53Z</time>
      </trkpt>
      <trkpt lat="46.13011" lon="7.06217">
        <ele>474.55</ele>
        <time>2017-02-27T08:04:07Z</time>
      </trkpt>
      <trkpt lat="46.13014" lon="7.06214">
        <ele>473.59</ele>
        <time>2017-02-27T08:04:10Z</time>
      </trkpt>
      <trkpt lat="46.13028" lon="7.06201">
        <ele>472.63</ele>
        <time>2017-02-27T08:04:24Z</time>
      </trkpt>
      <trkpt lat="46.13037" lon="7.06187">
        <ele>470.7</ele>
        <time>2017-02-27T08:04:35Z</time>
      </trkpt>
      <trkpt lat="46.13056" lon="7.06175">
        <ele>479.35</ele>
        <time>2017-02-27T08:04:47Z</time>
      </trkpt>
      <trkpt lat="46.13054" lon="7.06161">
        <ele>475.51</ele>
        <time>2017-02-27T08:04:58Z</time>
      </trkpt>
      <trkpt lat="46.13062" lon="7.0614">
        <ele>474.55</ele>
        <time>2017-02-27T08:05:11Z</time>
      </trkpt>
      <trkpt lat="46.13065" lon="7.06135">
        <ele>473.11</ele>
        <time>2017-02-27T08:05:15Z</time>
      </trkpt>
      <trkpt lat="46.13075" lon="7.06123">
        <ele>468.3</ele>
        <time>2017-02-27T08:05:31Z</time>
      </trkpt>
      <trkpt lat="46.13084" lon="7.0612">
        <ele>473.11</ele>
        <time>2017-02-27T08:05:45Z</time>
      </trkpt>
      <trkpt lat="46.13086" lon="7.06109">
        <ele>471.18</ele>
        <time>2017-02-27T08:05:55Z</time>
      </trkpt>
      <trkpt lat="46.13086" lon="7.06104">
        <ele>470.22</ele>
        <time>2017-02-27T08:05:57Z</time>
      </trkpt>
      <trkpt lat="46.13088" lon="7.06099">
        <ele>469.74</ele>
        <time>2017-02-27T08:06:00Z</time>
      </trkpt>
      <trkpt lat="46.13091" lon="7.06092">
        <ele>468.78</ele>
        <time>2017-02-27T08:06:04Z</time>
      </trkpt>
      <trkpt lat="46.131" lon="7.06088">
        <ele>464.45</ele>
        <time>2017-02-27T08:06:15Z</time>
      </trkpt>
      <trkpt lat="46.13114" lon="7.06082">
        <ele>462.05</ele>
        <time>2017-02-27T08:06:26Z</time>
      </trkpt>
      <trkpt lat="46.13131" lon="7.06066">
        <ele>460.13</ele>
        <time>2017-02-27T08:06:39Z</time>
      </trkpt>
      <trkpt lat="46.13137" lon="7.0606">
        <ele>459.17</ele>
        <time>2017-02-27T08:06:44Z</time>
      </trkpt>
      <trkpt lat="46.1315" lon="7.06045">
        <ele>458.21</ele>
        <time>2017-02-27T08:06:56Z</time>
      </trkpt>
      <trkpt lat="46.13156" lon="7.06038">
        <ele>458.21</ele>
        <time>2017-02-27T08:07:01Z</time>
      </trkpt>
      <trkpt lat="46.13162" lon="7.06029">
        <ele>457.72</ele>
        <time>2017-02-27T08:07:06Z</time>
      </trkpt>
      <trkpt lat="46.13166" lon="7.06022">
        <ele>457.72</ele>
        <time>2017-02-27T08:07:10Z</time>
      </trkpt>
      <trkpt lat="46.13173" lon="7.06004">
        <ele>458.21</ele>
        <time>2017-02-27T08:07:20Z</time>
      </trkpt>
      <trkpt lat="46.13182" lon="7.05989">
        <ele>456.76</ele>
        <time>2017-02-27T08:07:30Z</time>
      </trkpt>
      <trkpt lat="46.13186" lon="7.05971">
        <ele>456.28</ele>
        <time>2017-02-27T08:07:41Z</time>
      </trkpt>
      <trkpt lat="46.13191" lon="7.05965">
        <ele>456.28</ele>
        <time>2017-02-27T08:07:45Z</time>
      </trkpt>
      <trkpt lat="46.13197" lon="7.0596">
        <ele>456.28</ele>
        <time>2017-02-27T08:07:51Z</time>
      </trkpt>
      <trkpt lat="46.13201" lon="7.05948">
        <ele>455.8</ele>
        <time>2017-02-27T08:07:56Z</time>
      </trkpt>
      <trkpt lat="46.1321" lon="7.05936">
        <ele>456.76</ele>
        <time>2017-02-27T08:08:05Z</time>
      </trkpt>
      <trkpt lat="46.13224" lon="7.05931">
        <ele>454.84</ele>
        <time>2017-02-27T08:08:18Z</time>
      </trkpt>
      <trkpt lat="46.13236" lon="7.05923">
        <ele>453.88</ele>
        <time>2017-02-27T08:08:29Z</time>
      </trkpt>
      <trkpt lat="46.13248" lon="7.05908">
        <ele>453.88</ele>
        <time>2017-02-27T08:08:42Z</time>
      </trkpt>
      <trkpt lat="46.13266" lon="7.05897">
        <ele>453.88</ele>
        <time>2017-02-27T08:08:52Z</time>
      </trkpt>
      <trkpt lat="46.13268" lon="7.05886">
        <ele>453.88</ele>
        <time>2017-02-27T08:09:06Z</time>
      </trkpt>
      <trkpt lat="46.13272" lon="7.05883">
        <ele>453.88</ele>
        <time>2017-02-27T08:09:10Z</time>
      </trkpt>
      <trkpt lat="46.13273" lon="7.05864">
        <ele>464.45</ele>
        <time>2017-02-27T08:09:21Z</time>
      </trkpt>
      <trkpt lat="46.13266" lon="7.05883">
        <ele>469.74</ele>
        <time>2017-02-27T08:09:33Z</time>
      </trkpt>
      <trkpt lat="46.1326" lon="7.05894">
        <ele>471.66</ele>
        <time>2017-02-27T08:09:44Z</time>
      </trkpt>
      <trkpt lat="46.13268" lon="7.05893">
        <ele>467.34</ele>
        <time>2017-02-27T08:09:57Z</time>
      </trkpt>
      <trkpt lat="46.13279" lon="7.05881">
        <ele>463.01</ele>
        <time>2017-02-27T08:10:09Z</time>
      </trkpt>
      <trkpt lat="46.13291" lon="7.05864">
        <ele>460.61</ele>
        <time>2017-02-27T08:10:22Z</time>
      </trkpt>
      <trkpt lat="46.13292" lon="7.05857">
        <ele>460.13</ele>
        <time>2017-02-27T08:10:25Z</time>
      </trkpt>
      <trkpt lat="46.133" lon="7.05847">
        <ele>460.61</ele>
        <time>2017-02-27T08:10:37Z</time>
      </trkpt>
      <trkpt lat="46.13305" lon="7.05845">
        <ele>460.13</ele>
        <time>2017-02-27T08:10:42Z</time>
      </trkpt>
      <trkpt lat="46.13313" lon="7.0583">
        <ele>459.17</ele>
        <time>2017-02-27T08:10:52Z</time>
      </trkpt>
      <trkpt lat="46.13323" lon="7.05816">
        <ele>457.72</ele>
        <time>2017-02-27T08:11:04Z</time>
      </trkpt>
      <trkpt lat="46.13334" lon="7.05802">
        <ele>458.69</ele>
        <time>2017-02-27T08:11:15Z</time>
      </trkpt>
      <trkpt lat="46.13349" lon="7.05784">
        <ele>458.69</ele>
        <time>2017-02-27T08:11:27Z</time>
      </trkpt>
      <trkpt lat="46.13363" lon="7.05765">
        <ele>460.61</ele>
        <time>2017-02-27T08:11:42Z</time>
      </trkpt>
      <trkpt lat="46.13364" lon="7.05764">
        <ele>460.61</ele>
        <time>2017-02-27T08:11:43Z</time>
      </trkpt>
      <trkpt lat="46.13378" lon="7.05747">
        <ele>461.09</ele>
        <time>2017-02-27T08:11:58Z</time>
      </trkpt>
      <trkpt lat="46.13384" lon="7.05734">
        <ele>462.05</ele>
        <time>2017-02-27T08:12:09Z</time>
      </trkpt>
      <trkpt lat="46.13397" lon="7.05726">
        <ele>463.01</ele>
        <time>2017-02-27T08:12:20Z</time>
      </trkpt>
      <trkpt lat="46.13409" lon="7.0572">
        <ele>463.01</ele>
        <time>2017-02-27T08:12:31Z</time>
      </trkpt>
      <trkpt lat="46.13413" lon="7.05714">
        <ele>462.53</ele>
        <time>2017-02-27T08:12:40Z</time>
      </trkpt>
      <trkpt lat="46.13419" lon="7.05703">
        <ele>462.05</ele>
        <time>2017-02-27T08:12:52Z</time>
      </trkpt>
      <trkpt lat="46.13426" lon="7.05695">
        <ele>461.57</ele>
        <time>2017-02-27T08:13:03Z</time>
      </trkpt>
      <trkpt lat="46.13438" lon="7.05687">
        <ele>462.05</ele>
        <time>2017-02-27T08:13:15Z</time>
      </trkpt>
      <trkpt lat="46.13442" lon="7.05683">
        <ele>462.53</ele>
        <time>2017-02-27T08:13:18Z</time>
      </trkpt>
      <trkpt lat="46.13445" lon="7.05675">
        <ele>462.05</ele>
        <time>2017-02-27T08:13:23Z</time>
      </trkpt>
      <trkpt lat="46.1345" lon="7.05669">
        <ele>461.57</ele>
        <time>2017-02-27T08:13:29Z</time>
      </trkpt>
      <trkpt lat="46.1346" lon="7.05661">
        <ele>462.05</ele>
        <time>2017-02-27T08:13:41Z</time>
      </trkpt>
      <trkpt lat="46.13466" lon="7.05654">
        <ele>461.09</ele>
        <time>2017-02-27T08:13:56Z</time>
      </trkpt>
      <trkpt lat="46.13472" lon="7.05649">
        <ele>461.57</ele>
        <time>2017-02-27T08:14:01Z</time>
      </trkpt>
      <trkpt lat="46.13483" lon="7.0564">
        <ele>462.05</ele>
        <time>2017-02-27T08:14:13Z</time>
      </trkpt>
      <trkpt lat="46.13498" lon="7.0563">
        <ele>461.09</ele>
        <time>2017-02-27T08:14:25Z</time>
      </trkpt>
      <trkpt lat="46.13505" lon="7.05625">
        <ele>461.09</ele>
        <time>2017-02-27T08:14:29Z</time>
      </trkpt>
      <trkpt lat="46.13509" lon="7.0562">
        <ele>460.61</ele>
        <time>2017-02-27T08:14:34Z</time>
      </trkpt>
      <trkpt lat="46.1351" lon="7.05618">
        <ele>460.61</ele>
        <time>2017-02-27T08:14:36Z</time>
      </trkpt>
      <trkpt lat="46.13521" lon="7.05606">
        <ele>461.57</ele>
        <time>2017-02-27T08:14:46Z</time>
      </trkpt>
      <trkpt lat="46.13524" lon="7.05597">
        <ele>461.57</ele>
        <time>2017-02-27T08:14:53Z</time>
      </trkpt>
      <trkpt lat="46.13521" lon="7.05596">
        <ele>461.09</ele>
        <time>2017-02-27T08:14:56Z</time>
      </trkpt>
      <trkpt lat="46.1352" lon="7.05595">
        <ele>461.09</ele>
        <time>2017-02-27T08:14:58Z</time>
      </trkpt>
      <trkpt lat="46.13524" lon="7.05599">
        <ele>460.61</ele>
        <time>2017-02-27T08:15:01Z</time>
      </trkpt>
      <trkpt lat="46.13526" lon="7.05588">
        <ele>459.17</ele>
        <time>2017-02-27T08:15:07Z</time>
      </trkpt>
      <trkpt lat="46.13536" lon="7.05567">
        <ele>458.69</ele>
        <time>2017-02-27T08:15:19Z</time>
      </trkpt>
      <trkpt lat="46.13536" lon="7.05565">
        <ele>459.17</ele>
        <time>2017-02-27T08:15:20Z</time>
      </trkpt>
      <trkpt lat="46.13537" lon="7.0556">
        <ele>458.69</ele>
        <time>2017-02-27T08:15:23Z</time>
      </trkpt>
      <trkpt lat="46.13552" lon="7.05542">
        <ele>457.24</ele>
        <time>2017-02-27T08:15:37Z</time>
      </trkpt>
      <trkpt lat="46.13558" lon="7.05536">
        <ele>457.24</ele>
        <time>2017-02-27T08:15:42Z</time>
      </trkpt>
      <trkpt lat="46.13584" lon="7.05526">
        <ele>457.72</ele>
        <time>2017-02-27T08:15:57Z</time>
      </trkpt>
      <trkpt lat="46.13609" lon="7.05518">
        <ele>467.34</ele>
        <time>2017-02-27T08:16:12Z</time>
      </trkpt>
      <trkpt lat="46.1362" lon="7.05511">
        <ele>463.97</ele>
        <time>2017-02-27T08:16:27Z</time>
      </trkpt>
      <trkpt lat="46.13634" lon="7.05504">
        <ele>463.97</ele>
        <time>2017-02-27T08:16:42Z</time>
      </trkpt>
      <trkpt lat="46.13648" lon="7.05499">
        <ele>465.42</ele>
        <time>2017-02-27T08:16:56Z</time>
      </trkpt>
      <trkpt lat="46.13662" lon="7.05493">
        <ele>464.93</ele>
        <time>2017-02-27T08:17:09Z</time>
      </trkpt>
      <trkpt lat="46.13676" lon="7.05487">
        <ele>465.9</ele>
        <time>2017-02-27T08:17:21Z</time>
      </trkpt>
      <trkpt lat="46.13689" lon="7.0548">
        <ele>467.82</ele>
        <time>2017-02-27T08:17:32Z</time>
      </trkpt>
      <trkpt lat="46.13703" lon="7.05474">
        <ele>469.26</ele>
        <time>2017-02-27T08:17:43Z</time>
      </trkpt>
      <trkpt lat="46.13705" lon="7.05466">
        <ele>470.7</ele>
        <time>2017-02-27T08:17:57Z</time>
      </trkpt>
      <trkpt lat="46.13697" lon="7.05457">
        <ele>469.74</ele>
        <time>2017-02-27T08:18:10Z</time>
      </trkpt>
      <trkpt lat="46.13694" lon="7.05447">
        <ele>466.86</ele>
        <time>2017-02-27T08:18:19Z</time>
      </trkpt>
      <trkpt lat="46.13689" lon="7.05429">
        <ele>464.93</ele>
        <time>2017-02-27T08:18:31Z</time>
      </trkpt>
      <trkpt lat="46.13688" lon="7.05427">
        <ele>465.42</ele>
        <time>2017-02-27T08:18:34Z</time>
      </trkpt>
      <trkpt lat="46.13683" lon="7.05416">
        <ele>464.93</ele>
        <time>2017-02-27T08:18:40Z</time>
      </trkpt>
      <trkpt lat="46.1368" lon="7.05408">
        <ele>463.97</ele>
        <time>2017-02-27T08:18:43Z</time>
      </trkpt>
      <trkpt lat="46.13679" lon="7.05397">
        <ele>463.97</ele>
        <time>2017-02-27T08:18:47Z</time>
      </trkpt>
      <trkpt lat="46.13692" lon="7.05379">
        <ele>462.05</ele>
        <time>2017-02-27T08:19:02Z</time>
      </trkpt>
      <trkpt lat="46.13713" lon="7.05366">
        <ele>459.17</ele>
        <time>2017-02-27T08:19:16Z</time>
      </trkpt>
      <trkpt lat="46.13715" lon="7.05358">
        <ele>459.17</ele>
        <time>2017-02-27T08:19:21Z</time>
      </trkpt>
      <trkpt lat="46.13719" lon="7.05351">
        <ele>459.17</ele>
        <time>2017-02-27T08:19:25Z</time>
      </trkpt>
      <trkpt lat="46.13734" lon="7.05327">
        <ele>456.28</ele>
        <time>2017-02-27T08:19:40Z</time>
      </trkpt>
      <trkpt lat="46.13754" lon="7.0531">
        <ele>455.8</ele>
        <time>2017-02-27T08:19:54Z</time>
      </trkpt>
      <trkpt lat="46.13768" lon="7.05293">
        <ele>457.72</ele>
        <time>2017-02-27T08:20:07Z</time>
      </trkpt>
      <trkpt lat="46.13774" lon="7.05287">
        <ele>457.72</ele>
        <time>2017-02-27T08:20:11Z</time>
      </trkpt>
      <trkpt lat="46.13788" lon="7.05265">
        <ele>456.28</ele>
        <time>2017-02-27T08:20:26Z</time>
      </trkpt>
      <trkpt lat="46.13791" lon="7.05263">
        <ele>455.8</ele>
        <time>2017-02-27T08:20:29Z</time>
      </trkpt>
      <trkpt lat="46.13796" lon="7.05257">
        <ele>455.32</ele>
        <time>2017-02-27T08:20:36Z</time>
      </trkpt>
      <trkpt lat="46.13791" lon="7.05268">
        <ele>453.4</ele>
        <time>2017-02-27T08:20:49Z</time>
      </trkpt>
      <trkpt lat="46.13794" lon="7.05269">
        <ele>451.96</ele>
        <time>2017-02-27T08:20:54Z</time>
      </trkpt>
      <trkpt lat="46.13805" lon="7.05255">
        <ele>449.55</ele>
        <time>2017-02-27T08:21:06Z</time>
      </trkpt>
      <trkpt lat="46.13809" lon="7.05251">
        <ele>448.59</ele>
        <time>2017-02-27T08:21:12Z</time>
      </trkpt>
      <trkpt lat="46.1382" lon="7.05242">
        <ele>446.67</ele>
        <time>2017-02-27T08:21:24Z</time>
      </trkpt>
      <trkpt lat="46.13833" lon="7.05233">
        <ele>445.71</ele>
        <time>2017-02-27T08:21:36Z</time>
      </trkpt>
      <trkpt lat="46.13845" lon="7.05232">
        <ele>446.67</ele>
        <time>2017-02-27T08:21:48Z</time>
      </trkpt>
      <trkpt lat="46.13857" lon="7.05218">
        <ele>447.15</ele>
        <time>2017-02-27T08:21:59Z</time>
      </trkpt>
      <trkpt lat="46.13863" lon="7.05211">
        <ele>447.15</ele>
        <time>2017-02-27T08:22:11Z</time>
      </trkpt>
      <trkpt lat="46.13864" lon="7.05209">
        <ele>446.67</ele>
        <time>2017-02-27T08:22:13Z</time>
      </trkpt>
      <trkpt lat="46.13873" lon="7.0519">
        <ele>445.71</ele>
        <time>2017-02-27T08:22:27Z</time>
      </trkpt>
      <trkpt lat="46.13877" lon="7.05181">
        <ele>445.23</ele>
        <time>2017-02-27T08:22:40Z</time>
      </trkpt>
      <trkpt lat="46.13878" lon="7.05179">
        <ele>444.75</ele>
        <time>2017-02-27T08:22:44Z</time>
      </trkpt>
      <trkpt lat="46.13881" lon="7.05174">
        <ele>444.27</ele>
        <time>2017-02-27T08:22:55Z</time>
      </trkpt>
      <trkpt lat="46.13886" lon="7.0516">
        <ele>444.27</ele>
        <time>2017-02-27T08:23:06Z</time>
      </trkpt>
      <trkpt lat="46.13887" lon="7.05159">
        <ele>444.27</ele>
        <time>2017-02-27T08:23:07Z</time>
      </trkpt>
      <trkpt lat="46.13891" lon="7.05152">
        <ele>443.79</ele>
        <time>2017-02-27T08:23:11Z</time>
      </trkpt>
      <trkpt lat="46.13893" lon="7.05149">
        <ele>443.79</ele>
        <time>2017-02-27T08:23:13Z</time>
      </trkpt>
      <trkpt lat="46.13902" lon="7.05138">
        <ele>443.31</ele>
        <time>2017-02-27T08:23:22Z</time>
      </trkpt>
      <trkpt lat="46.13908" lon="7.05134">
        <ele>443.31</ele>
        <time>2017-02-27T08:23:26Z</time>
      </trkpt>
      <trkpt lat="46.13904" lon="7.05128">
        <ele>443.79</ele>
        <time>2017-02-27T08:23:31Z</time>
      </trkpt>
      <trkpt lat="46.13904" lon="7.05124">
        <ele>443.79</ele>
        <time>2017-02-27T08:23:34Z</time>
      </trkpt>
      <trkpt lat="46.13906" lon="7.05122">
        <ele>443.79</ele>
        <time>2017-02-27T08:23:46Z</time>
      </trkpt>
      <trkpt lat="46.13909" lon="7.05123">
        <ele>444.27</ele>
        <time>2017-02-27T08:23:53Z</time>
      </trkpt>
      <trkpt lat="46.13922" lon="7.05111">
        <ele>442.82</ele>
        <time>2017-02-27T08:24:07Z</time>
      </trkpt>
      <trkpt lat="46.13923" lon="7.0511">
        <ele>442.82</ele>
        <time>2017-02-27T08:24:08Z</time>
      </trkpt>
      <trkpt lat="46.13928" lon="7.05107">
        <ele>442.34</ele>
        <time>2017-02-27T08:24:12Z</time>
      </trkpt>
      <trkpt lat="46.13931" lon="7.05101">
        <ele>442.34</ele>
        <time>2017-02-27T08:24:16Z</time>
      </trkpt>
      <trkpt lat="46.1394" lon="7.05094">
        <ele>441.38</ele>
        <time>2017-02-27T08:24:24Z</time>
      </trkpt>
      <trkpt lat="46.13951" lon="7.05081">
        <ele>440.42</ele>
        <time>2017-02-27T08:24:34Z</time>
      </trkpt>
      <trkpt lat="46.13955" lon="7.05078">
        <ele>440.42</ele>
        <time>2017-02-27T08:24:37Z</time>
      </trkpt>
      <trkpt lat="46.13972" lon="7.0506">
        <ele>439.46</ele>
        <time>2017-02-27T08:24:51Z</time>
      </trkpt>
      <trkpt lat="46.13983" lon="7.05047">
        <ele>438.5</ele>
        <time>2017-02-27T08:25:01Z</time>
      </trkpt>
      <trkpt lat="46.13989" lon="7.05041">
        <ele>438.02</ele>
        <time>2017-02-27T08:25:07Z</time>
      </trkpt>
      <trkpt lat="46.14001" lon="7.05034">
        <ele>437.06</ele>
        <time>2017-02-27T08:25:17Z</time>
      </trkpt>
      <trkpt lat="46.14011" lon="7.05019">
        <ele>437.06</ele>
        <time>2017-02-27T08:25:28Z</time>
      </trkpt>
      <trkpt lat="46.14013" lon="7.05018">
        <ele>437.06</ele>
        <time>2017-02-27T08:25:31Z</time>
      </trkpt>
      <trkpt lat="46.14018" lon="7.05009">
        <ele>436.1</ele>
        <time>2017-02-27T08:25:39Z</time>
      </trkpt>
      <trkpt lat="46.14029" lon="7.04994">
        <ele>435.13</ele>
        <time>2017-02-27T08:25:51Z</time>
      </trkpt>
      <trkpt lat="46.1403" lon="7.04993">
        <ele>434.65</ele>
        <time>2017-02-27T08:25:52Z</time>
      </trkpt>
      <trkpt lat="46.14035" lon="7.04988">
        <ele>434.65</ele>
        <time>2017-02-27T08:25:56Z</time>
      </trkpt>
      <trkpt lat="46.1404" lon="7.04982">
        <ele>434.17</ele>
        <time>2017-02-27T08:26:01Z</time>
      </trkpt>
      <trkpt lat="46.14052" lon="7.04968">
        <ele>433.21</ele>
        <time>2017-02-27T08:26:10Z</time>
      </trkpt>
      <trkpt lat="46.14071" lon="7.04945">
        <ele>431.29</ele>
        <time>2017-02-27T08:26:23Z</time>
      </trkpt>
      <trkpt lat="46.14079" lon="7.04934">
        <ele>431.29</ele>
        <time>2017-02-27T08:26:30Z</time>
      </trkpt>
      <trkpt lat="46.14097" lon="7.04918">
        <ele>431.29</ele>
        <time>2017-02-27T08:26:44Z</time>
      </trkpt>
      <trkpt lat="46.14112" lon="7.04903">
        <ele>430.81</ele>
        <time>2017-02-27T08:26:55Z</time>
      </trkpt>
      <trkpt lat="46.14116" lon="7.04897">
        <ele>430.33</ele>
        <time>2017-02-27T08:27:00Z</time>
      </trkpt>
      <trkpt lat="46.1413" lon="7.04878">
        <ele>429.85</ele>
        <time>2017-02-27T08:27:12Z</time>
      </trkpt>
      <trkpt lat="46.14134" lon="7.04872">
        <ele>429.85</ele>
        <time>2017-02-27T08:27:16Z</time>
      </trkpt>
      <trkpt lat="46.1416" lon="7.04856">
        <ele>429.85</ele>
        <time>2017-02-27T08:27:31Z</time>
      </trkpt>
      <trkpt lat="46.14182" lon="7.04836">
        <ele>429.85</ele>
        <time>2017-02-27T08:27:43Z</time>
      </trkpt>
      <trkpt lat="46.14183" lon="7.04833">
        <ele>429.85</ele>
        <time>2017-02-27T08:27:45Z</time>
      </trkpt>
      <trkpt lat="46.14185" lon="7.04831">
        <ele>429.85</ele>
        <time>2017-02-27T08:27:47Z</time>
      </trkpt>
      <trkpt lat="46.14201" lon="7.0481">
        <ele>429.85</ele>
        <time>2017-02-27T08:28:02Z</time>
      </trkpt>
      <trkpt lat="46.14206" lon="7.04802">
        <ele>429.37</ele>
        <time>2017-02-27T08:28:08Z</time>
      </trkpt>
      <trkpt lat="46.14206" lon="7.04793">
        <ele>429.37</ele>
        <time>2017-02-27T08:28:13Z</time>
      </trkpt>
      <trkpt lat="46.14208" lon="7.0479">
        <ele>429.37</ele>
        <time>2017-02-27T08:28:16Z</time>
      </trkpt>
      <trkpt lat="46.14221" lon="7.04765">
        <ele>428.4</ele>
        <time>2017-02-27T08:28:31Z</time>
      </trkpt>
      <trkpt lat="46.14232" lon="7.04751">
        <ele>427.92</ele>
        <time>2017-02-27T08:28:41Z</time>
      </trkpt>
      <trkpt lat="46.14236" lon="7.04741">
        <ele>427.92</ele>
        <time>2017-02-27T08:28:47Z</time>
      </trkpt>
      <trkpt lat="46.1424" lon="7.04733">
        <ele>427.44</ele>
        <time>2017-02-27T08:28:53Z</time>
      </trkpt>
      <trkpt lat="46.14243" lon="7.04725">
        <ele>427.44</ele>
        <time>2017-02-27T08:28:58Z</time>
      </trkpt>
      <trkpt lat="46.14247" lon="7.04714">
        <ele>427.92</ele>
        <time>2017-02-27T08:29:05Z</time>
      </trkpt>
      <trkpt lat="46.14254" lon="7.04706">
        <ele>427.44</ele>
        <time>2017-02-27T08:29:14Z</time>
      </trkpt>
      <trkpt lat="46.14255" lon="7.04701">
        <ele>427.44</ele>
        <time>2017-02-27T08:29:18Z</time>
      </trkpt>
      <trkpt lat="46.14259" lon="7.04694">
        <ele>427.44</ele>
        <time>2017-02-27T08:29:22Z</time>
      </trkpt>
      <trkpt lat="46.14264" lon="7.04684">
        <ele>427.44</ele>
        <time>2017-02-27T08:29:27Z</time>
      </trkpt>
      <trkpt lat="46.14289" lon="7.0464">
        <ele>428.4</ele>
        <time>2017-02-27T08:29:55Z</time>
      </trkpt>
      <trkpt lat="46.14304" lon="7.04623">
        <ele>428.4</ele>
        <time>2017-02-27T08:30:10Z</time>
      </trkpt>
      <trkpt lat="46.14324" lon="7.04609">
        <ele>427.92</ele>
        <time>2017-02-27T08:30:25Z</time>
      </trkpt>
      <trkpt lat="46.14335" lon="7.04601">
        <ele>427.44</ele>
        <time>2017-02-27T08:30:32Z</time>
      </trkpt>
      <trkpt lat="46.1435" lon="7.04597">
        <ele>430.33</ele>
        <time>2017-02-27T08:30:43Z</time>
      </trkpt>
      <trkpt lat="46.14354" lon="7.04602">
        <ele>428.89</ele>
        <time>2017-02-27T08:30:50Z</time>
      </trkpt>
      <trkpt lat="46.1436" lon="7.04615">
        <ele>428.4</ele>
        <time>2017-02-27T08:31:01Z</time>
      </trkpt>
      <trkpt lat="46.1436" lon="7.0462">
        <ele>428.4</ele>
        <time>2017-02-27T08:31:06Z</time>
      </trkpt>
      <trkpt lat="46.14366" lon="7.04602">
        <ele>427.92</ele>
        <time>2017-02-27T08:31:19Z</time>
      </trkpt>
      <trkpt lat="46.14372" lon="7.04588">
        <ele>427.92</ele>
        <time>2017-02-27T08:31:30Z</time>
      </trkpt>
      <trkpt lat="46.14394" lon="7.04581">
        <ele>428.4</ele>
        <time>2017-02-27T08:31:42Z</time>
      </trkpt>
      <trkpt lat="46.14394" lon="7.04579">
        <ele>428.89</ele>
        <time>2017-02-27T08:31:49Z</time>
      </trkpt>
      <trkpt lat="46.14412" lon="7.04567">
        <ele>429.85</ele>
        <time>2017-02-27T08:32:00Z</time>
      </trkpt>
      <trkpt lat="46.14414" lon="7.04566">
        <ele>429.85</ele>
        <time>2017-02-27T08:32:06Z</time>
      </trkpt>
      <trkpt lat="46.14427" lon="7.04559">
        <ele>430.81</ele>
        <time>2017-02-27T08:32:13Z</time>
      </trkpt>
      <trkpt lat="46.14433" lon="7.04553">
        <ele>432.73</ele>
        <time>2017-02-27T08:32:25Z</time>
      </trkpt>
      <trkpt lat="46.14436" lon="7.04549">
        <ele>433.21</ele>
        <time>2017-02-27T08:32:40Z</time>
      </trkpt>
      <trkpt lat="46.14441" lon="7.04547">
        <ele>433.69</ele>
        <time>2017-02-27T08:32:48Z</time>
      </trkpt>
      <trkpt lat="46.14467" lon="7.04541">
        <ele>433.69</ele>
        <time>2017-02-27T08:33:00Z</time>
      </trkpt>
      <trkpt lat="46.14473" lon="7.04539">
        <ele>434.17</ele>
        <time>2017-02-27T08:33:05Z</time>
      </trkpt>
      <trkpt lat="46.14483" lon="7.04531">
        <ele>434.65</ele>
        <time>2017-02-27T08:33:15Z</time>
      </trkpt>
      <trkpt lat="46.14491" lon="7.04522">
        <ele>435.13</ele>
        <time>2017-02-27T08:33:30Z</time>
      </trkpt>
      <trkpt lat="46.14494" lon="7.04519">
        <ele>435.13</ele>
        <time>2017-02-27T08:33:33Z</time>
      </trkpt>
      <trkpt lat="46.14496" lon="7.04519">
        <ele>435.13</ele>
        <time>2017-02-27T08:33:37Z</time>
      </trkpt>
      <trkpt lat="46.14488" lon="7.04525">
        <ele>436.1</ele>
        <time>2017-02-27T08:33:50Z</time>
      </trkpt>
      <trkpt lat="46.14488" lon="7.04529">
        <ele>436.58</ele>
        <time>2017-02-27T08:34:04Z</time>
      </trkpt>
      <trkpt lat="46.14487" lon="7.0453">
        <ele>437.06</ele>
        <time>2017-02-27T08:34:17Z</time>
      </trkpt>
      <trkpt lat="46.14487" lon="7.04531">
        <ele>437.06</ele>
        <time>2017-02-27T08:34:19Z</time>
      </trkpt>
      <trkpt lat="46.14479" lon="7.04533">
        <ele>454.84</ele>
        <time>2017-02-27T08:34:28Z</time>
      </trkpt>
      <trkpt lat="46.14478" lon="7.04522">
        <ele>457.72</ele>
        <time>2017-02-27T08:34:41Z</time>
      </trkpt>
      <trkpt lat="46.14478" lon="7.04518">
        <ele>455.32</ele>
        <time>2017-02-27T08:34:58Z</time>
      </trkpt>
      <trkpt lat="46.1448" lon="7.04524">
        <ele>453.88</ele>
        <time>2017-02-27T08:35:20Z</time>
      </trkpt>
      <trkpt lat="46.14485" lon="7.04525">
        <ele>453.88</ele>
        <time>2017-02-27T08:35:31Z</time>
      </trkpt>
      <trkpt lat="46.14485" lon="7.04522">
        <ele>459.17</ele>
        <time>2017-02-27T08:35:45Z</time>
      </trkpt>
      <trkpt lat="46.14484" lon="7.04525">
        <ele>459.17</ele>
        <time>2017-02-27T08:35:58Z</time>
      </trkpt>
      <trkpt lat="46.14482" lon="7.04524">
        <ele>458.69</ele>
        <time>2017-02-27T08:36:14Z</time>
      </trkpt>
      <trkpt lat="46.14483" lon="7.04523">
        <ele>460.13</ele>
        <time>2017-02-27T08:36:28Z</time>
      </trkpt>
      <trkpt lat="46.14484" lon="7.04524">
        <ele>461.09</ele>
        <time>2017-02-27T08:36:41Z</time>
      </trkpt>
      <trkpt lat="46.14484" lon="7.04526">
        <ele>461.09</ele>
        <time>2017-02-27T08:36:57Z</time>
      </trkpt>
      <trkpt lat="46.14485" lon="7.04527">
        <ele>461.09</ele>
        <time>2017-02-27T08:37:18Z</time>
      </trkpt>
      <trkpt lat="46.14483" lon="7.04523">
        <ele>460.61</ele>
        <time>2017-02-27T08:37:32Z</time>
      </trkpt>
      <trkpt lat="46.14482" lon="7.04525">
        <ele>460.61</ele>
        <time>2017-02-27T08:37:46Z</time>
      </trkpt>
      <trkpt lat="46.14483" lon="7.04524">
        <ele>460.61</ele>
        <time>2017-02-27T08:38:02Z</time>
      </trkpt>
      <trkpt lat="46.14483" lon="7.04523">
        <ele>460.61</ele>
        <time>2017-02-27T08:38:18Z</time>
      </trkpt>
      <trkpt lat="46.1448" lon="7.04526">
        <ele>460.61</ele>
        <time>2017-02-27T08:38:28Z</time>
      </trkpt>
      <trkpt lat="46.1448" lon="7.04531">
        <ele>460.61</ele>
        <time>2017-02-27T08:38:43Z</time>
      </trkpt>
      <trkpt lat="46.14481" lon="7.0453">
        <ele>460.61</ele>
        <time>2017-02-27T08:38:59Z</time>
      </trkpt>
      <trkpt lat="46.14483" lon="7.04526">
        <ele>460.13</ele>
        <time>2017-02-27T08:39:16Z</time>
      </trkpt>
      <trkpt lat="46.14483" lon="7.04524">
        <ele>459.65</ele>
        <time>2017-02-27T08:39:36Z</time>
      </trkpt>
      <trkpt lat="46.14484" lon="7.04526">
        <ele>459.17</ele>
        <time>2017-02-27T08:40:00Z</time>
      </trkpt>
      <trkpt lat="46.14483" lon="7.04526">
        <ele>460.13</ele>
        <time>2017-02-27T08:40:21Z</time>
      </trkpt>
      <trkpt lat="46.14484" lon="7.04526">
        <ele>460.13</ele>
        <time>2017-02-27T08:40:33Z</time>
      </trkpt>
      <trkpt lat="46.14483" lon="7.04522">
        <ele>460.13</ele>
        <time>2017-02-27T08:40:45Z</time>
      </trkpt>
      <trkpt lat="46.14484" lon="7.04523">
        <ele>460.13</ele>
        <time>2017-02-27T08:41:06Z</time>
      </trkpt>
      <trkpt lat="46.14483" lon="7.04525">
        <ele>458.69</ele>
        <time>2017-02-27T08:41:23Z</time>
      </trkpt>
      <trkpt lat="46.14483" lon="7.04524">
        <ele>457.72</ele>
        <time>2017-02-27T08:41:40Z</time>
      </trkpt>
      <trkpt lat="46.14482" lon="7.04524">
        <ele>458.21</ele>
        <time>2017-02-27T08:41:52Z</time>
      </trkpt>
      <trkpt lat="46.14484" lon="7.04524">
        <ele>458.21</ele>
        <time>2017-02-27T08:42:01Z</time>
      </trkpt>
      <trkpt lat="46.14492" lon="7.04518">
        <ele>456.76</ele>
        <time>2017-02-27T08:42:12Z</time>
      </trkpt>
      <trkpt lat="46.14492" lon="7.04516">
        <ele>457.24</ele>
        <time>2017-02-27T08:42:24Z</time>
      </trkpt>
      <trkpt lat="46.14491" lon="7.04515">
        <ele>457.72</ele>
        <time>2017-02-27T08:42:36Z</time>
      </trkpt>
      <trkpt lat="46.14486" lon="7.04517">
        <ele>457.24</ele>
        <time>2017-02-27T08:42:46Z</time>
      </trkpt>
      <trkpt lat="46.14485" lon="7.04523">
        <ele>457.72</ele>
        <time>2017-02-27T08:42:58Z</time>
      </trkpt>
      <trkpt lat="46.14485" lon="7.04529">
        <ele>457.72</ele>
        <time>2017-02-27T08:43:17Z</time>
      </trkpt>
      <trkpt lat="46.14485" lon="7.04526">
        <ele>458.69</ele>
        <time>2017-02-27T08:43:30Z</time>
      </trkpt>
      <trkpt lat="46.14484" lon="7.04527">
        <ele>459.17</ele>
        <time>2017-02-27T08:43:42Z</time>
      </trkpt>
      <trkpt lat="46.14484" lon="7.04529">
        <ele>460.13</ele>
        <time>2017-02-27T08:43:56Z</time>
      </trkpt>
      <trkpt lat="46.14488" lon="7.0453">
        <ele>459.17</ele>
        <time>2017-02-27T08:44:10Z</time>
      </trkpt>
      <trkpt lat="46.14487" lon="7.04534">
        <ele>458.21</ele>
        <time>2017-02-27T08:44:25Z</time>
      </trkpt>
      <trkpt lat="46.14487" lon="7.04534">
        <ele>457.72</ele>
        <time>2017-02-27T08:44:37Z</time>
      </trkpt>
      <trkpt lat="46.14486" lon="7.04529">
        <ele>456.76</ele>
        <time>2017-02-27T08:44:47Z</time>
      </trkpt>
      <trkpt lat="46.14484" lon="7.04525">
        <ele>455.8</ele>
        <time>2017-02-27T08:44:59Z</time>
      </trkpt>
      <trkpt lat="46.14481" lon="7.04528">
        <ele>455.32</ele>
        <time>2017-02-27T08:45:10Z</time>
      </trkpt>
      <trkpt lat="46.14481" lon="7.0453">
        <ele>454.84</ele>
        <time>2017-02-27T08:45:26Z</time>
      </trkpt>
      <trkpt lat="46.14483" lon="7.04525">
        <ele>457.24</ele>
        <time>2017-02-27T08:45:36Z</time>
      </trkpt>
      <trkpt lat="46.14486" lon="7.04523">
        <ele>457.24</ele>
        <time>2017-02-27T08:45:50Z</time>
      </trkpt>
      <trkpt lat="46.14486" lon="7.04523">
        <ele>456.28</ele>
        <time>2017-02-27T08:46:04Z</time>
      </trkpt>
      <trkpt lat="46.14484" lon="7.04525">
        <ele>456.76</ele>
        <time>2017-02-27T08:46:19Z</time>
      </trkpt>
      <trkpt lat="46.14483" lon="7.04525">
        <ele>457.24</ele>
        <time>2017-02-27T08:46:40Z</time>
      </trkpt>
      <trkpt lat="46.14483" lon="7.04525">
        <ele>456.76</ele>
        <time>2017-02-27T08:47:10Z</time>
      </trkpt>
      <trkpt lat="46.14484" lon="7.04527">
        <ele>457.24</ele>
        <time>2017-02-27T08:47:30Z</time>
      </trkpt>
      <trkpt lat="46.14486" lon="7.04527">
        <ele>457.24</ele>
        <time>2017-02-27T08:47:48Z</time>
      </trkpt>
      <trkpt lat="46.14486" lon="7.04527">
        <ele>457.72</ele>
        <time>2017-02-27T08:48:18Z</time>
      </trkpt>
      <trkpt lat="46.14486" lon="7.04526">
        <ele>457.72</ele>
        <time>2017-02-27T08:48:30Z</time>
      </trkpt>
      <trkpt lat="46.14483" lon="7.04523">
        <ele>458.69</ele>
        <time>2017-02-27T08:48:41Z</time>
      </trkpt>
      <trkpt lat="46.14484" lon="7.04521">
        <ele>460.61</ele>
        <time>2017-02-27T08:49:11Z</time>
      </trkpt>
      <trkpt lat="46.14483" lon="7.04519">
        <ele>461.57</ele>
        <time>2017-02-27T08:49:45Z</time>
      </trkpt>
      <trkpt lat="46.14483" lon="7.04518">
        <ele>463.01</ele>
        <time>2017-02-27T08:50:03Z</time>
      </trkpt>
      <trkpt lat="46.14481" lon="7.04524">
        <ele>463.01</ele>
        <time>2017-02-27T08:50:13Z</time>
      </trkpt>
      <trkpt lat="46.14482" lon="7.04525">
        <ele>463.01</ele>
        <time>2017-02-27T08:50:28Z</time>
      </trkpt>
      <trkpt lat="46.14483" lon="7.04524">
        <ele>463.97</ele>
        <time>2017-02-27T08:50:55Z</time>
      </trkpt>
      <trkpt lat="46.14482" lon="7.04525">
        <ele>463.97</ele>
        <time>2017-02-27T08:51:06Z</time>
      </trkpt>
      <trkpt lat="46.14482" lon="7.04526">
        <ele>463.49</ele>
        <time>2017-02-27T08:51:21Z</time>
      </trkpt>
      <trkpt lat="46.14481" lon="7.04525">
        <ele>463.97</ele>
        <time>2017-02-27T08:51:37Z</time>
      </trkpt>
      <trkpt lat="46.1448" lon="7.04525">
        <ele>463.49</ele>
        <time>2017-02-27T08:51:52Z</time>
      </trkpt>
      <trkpt lat="46.1448" lon="7.04528">
        <ele>463.49</ele>
        <time>2017-02-27T08:52:06Z</time>
      </trkpt>
      <trkpt lat="46.1448" lon="7.04529">
        <ele>464.45</ele>
        <time>2017-02-27T08:52:23Z</time>
      </trkpt>
      <trkpt lat="46.14479" lon="7.04531">
        <ele>464.93</ele>
        <time>2017-02-27T08:52:36Z</time>
      </trkpt>
      <trkpt lat="46.14478" lon="7.04534">
        <ele>464.45</ele>
        <time>2017-02-27T08:52:47Z</time>
      </trkpt>
      <trkpt lat="46.1448" lon="7.04523">
        <ele>465.42</ele>
        <time>2017-02-27T08:53:01Z</time>
      </trkpt>
      <trkpt lat="46.14483" lon="7.04523">
        <ele>465.42</ele>
        <time>2017-02-27T08:53:15Z</time>
      </trkpt>
      <trkpt lat="46.14485" lon="7.04525">
        <ele>463.49</ele>
        <time>2017-02-27T08:53:30Z</time>
      </trkpt>
      <trkpt lat="46.14486" lon="7.04525">
        <ele>463.49</ele>
        <time>2017-02-27T08:53:48Z</time>
      </trkpt>
      <trkpt lat="46.14486" lon="7.04525">
        <ele>463.01</ele>
        <time>2017-02-27T08:54:09Z</time>
      </trkpt>
      <trkpt lat="46.14488" lon="7.04524">
        <ele>462.05</ele>
        <time>2017-02-27T08:54:27Z</time>
      </trkpt>
      <trkpt lat="46.14485" lon="7.04523">
        <ele>462.05</ele>
        <time>2017-02-27T08:54:41Z</time>
      </trkpt>
      <trkpt lat="46.14484" lon="7.04524">
        <ele>462.05</ele>
        <time>2017-02-27T08:55:02Z</time>
      </trkpt>
      <trkpt lat="46.14483" lon="7.04523">
        <ele>462.05</ele>
        <time>2017-02-27T08:55:20Z</time>
      </trkpt>
      <trkpt lat="46.14486" lon="7.04526">
        <ele>463.01</ele>
        <time>2017-02-27T08:55:31Z</time>
      </trkpt>
      <trkpt lat="46.14485" lon="7.04524">
        <ele>462.53</ele>
        <time>2017-02-27T08:55:49Z</time>
      </trkpt>
      <trkpt lat="46.14483" lon="7.04524">
        <ele>461.57</ele>
        <time>2017-02-27T08:56:06Z</time>
      </trkpt>
      <trkpt lat="46.14484" lon="7.04523">
        <ele>462.05</ele>
        <time>2017-02-27T08:56:25Z</time>
      </trkpt>
      <trkpt lat="46.14484" lon="7.04523">
        <ele>460.61</ele>
        <time>2017-02-27T08:56:43Z</time>
      </trkpt>
      <trkpt lat="46.14484" lon="7.04524">
        <ele>460.13</ele>
        <time>2017-02-27T08:56:56Z</time>
      </trkpt>
      <trkpt lat="46.14484" lon="7.04524">
        <ele>458.69</ele>
        <time>2017-02-27T08:57:21Z</time>
      </trkpt>
      <trkpt lat="46.14483" lon="7.04524">
        <ele>457.72</ele>
        <time>2017-02-27T08:57:41Z</time>
      </trkpt>
      <trkpt lat="46.14485" lon="7.04523">
        <ele>458.21</ele>
        <time>2017-02-27T08:58:00Z</time>
      </trkpt>
      <trkpt lat="46.14485" lon="7.04522">
        <ele>458.21</ele>
        <time>2017-02-27T08:58:16Z</time>
      </trkpt>
      <trkpt lat="46.14485" lon="7.04522">
        <ele>458.69</ele>
        <time>2017-02-27T08:58:46Z</time>
      </trkpt>
      <trkpt lat="46.14485" lon="7.04521">
        <ele>459.17</ele>
        <time>2017-02-27T08:59:03Z</time>
      </trkpt>
      <trkpt lat="46.14485" lon="7.04522">
        <ele>459.17</ele>
        <time>2017-02-27T08:59:16Z</time>
      </trkpt>
      <trkpt lat="46.14485" lon="7.04522">
        <ele>459.17</ele>
        <time>2017-02-27T08:59:35Z</time>
      </trkpt>
      <trkpt lat="46.14486" lon="7.04525">
        <ele>458.69</ele>
        <time>2017-02-27T08:59:51Z</time>
      </trkpt>
      <trkpt lat="46.14484" lon="7.04523">
        <ele>458.21</ele>
        <time>2017-02-27T09:00:07Z</time>
      </trkpt>
      <trkpt lat="46.14484" lon="7.04524">
        <ele>457.72</ele>
        <time>2017-02-27T09:00:24Z</time>
      </trkpt>
      <trkpt lat="46.14484" lon="7.04524">
        <ele>457.24</ele>
        <time>2017-02-27T09:00:48Z</time>
      </trkpt>
      <trkpt lat="46.14484" lon="7.04524">
        <ele>457.72</ele>
        <time>2017-02-27T09:01:06Z</time>
      </trkpt>
      <trkpt lat="46.14484" lon="7.04526">
        <ele>458.21</ele>
        <time>2017-02-27T09:01:26Z</time>
      </trkpt>
      <trkpt lat="46.14485" lon="7.04528">
        <ele>459.65</ele>
        <time>2017-02-27T09:01:47Z</time>
      </trkpt>
      <trkpt lat="46.14484" lon="7.0453">
        <ele>460.13</ele>
        <time>2017-02-27T09:02:01Z</time>
      </trkpt>
      <trkpt lat="46.14485" lon="7.0453">
        <ele>460.13</ele>
        <time>2017-02-27T09:02:19Z</time>
      </trkpt>
      <trkpt lat="46.14485" lon="7.04529">
        <ele>460.13</ele>
        <time>2017-02-27T09:02:46Z</time>
      </trkpt>
      <trkpt lat="46.14487" lon="7.04529">
        <ele>459.17</ele>
        <time>2017-02-27T09:03:12Z</time>
      </trkpt>
      <trkpt lat="46.14487" lon="7.0453">
        <ele>459.65</ele>
        <time>2017-02-27T09:03:39Z</time>
      </trkpt>
      <trkpt lat="46.14487" lon="7.04531">
        <ele>459.65</ele>
        <time>2017-02-27T09:03:44Z</time>
      </trkpt>
      <trkpt lat="46.14488" lon="7.04528">
        <ele>459.65</ele>
        <time>2017-02-27T09:03:49Z</time>
      </trkpt>
      <trkpt lat="46.14487" lon="7.04525">
        <ele>459.65</ele>
        <time>2017-02-27T09:03:52Z</time>
      </trkpt>
      <trkpt lat="46.14485" lon="7.04524">
        <ele>458.69</ele>
        <time>2017-02-27T09:04:07Z</time>
      </trkpt>
      <trkpt lat="46.14484" lon="7.04524">
        <ele>457.72</ele>
        <time>2017-02-27T09:04:28Z</time>
      </trkpt>
      <trkpt lat="46.14484" lon="7.04524">
        <ele>457.72</ele>
        <time>2017-02-27T09:04:45Z</time>
      </trkpt>
      <trkpt lat="46.14484" lon="7.04524">
        <ele>457.72</ele>
        <time>2017-02-27T09:05:03Z</time>
      </trkpt>
      <trkpt lat="46.14482" lon="7.04527">
        <ele>458.21</ele>
        <time>2017-02-27T09:05:19Z</time>
      </trkpt>
      <trkpt lat="46.14483" lon="7.04531">
        <ele>457.72</ele>
        <time>2017-02-27T09:05:49Z</time>
      </trkpt>
      <trkpt lat="46.14484" lon="7.04536">
        <ele>458.21</ele>
        <time>2017-02-27T09:06:19Z</time>
      </trkpt>
      <trkpt lat="46.14484" lon="7.04539">
        <ele>458.21</ele>
        <time>2017-02-27T09:06:55Z</time>
      </trkpt>
      <trkpt lat="46.14483" lon="7.04538">
        <ele>458.69</ele>
        <time>2017-02-27T09:07:27Z</time>
      </trkpt>
      <trkpt lat="46.14487" lon="7.04532">
        <ele>459.17</ele>
        <time>2017-02-27T09:07:50Z</time>
      </trkpt>
      <trkpt lat="46.14488" lon="7.04529">
        <ele>459.65</ele>
        <time>2017-02-27T09:08:09Z</time>
      </trkpt>
      <trkpt lat="46.14489" lon="7.04528">
        <ele>459.65</ele>
        <time>2017-02-27T09:08:26Z</time>
      </trkpt>
      <trkpt lat="46.14484" lon="7.04523">
        <ele>458.69</ele>
        <time>2017-02-27T09:08:40Z</time>
      </trkpt>
      <trkpt lat="46.14485" lon="7.04522">
        <ele>458.21</ele>
        <time>2017-02-27T09:08:47Z</time>
      </trkpt>
      <trkpt lat="46.14491" lon="7.04517">
        <ele>456.76</ele>
        <time>2017-02-27T09:08:58Z</time>
      </trkpt>
      <trkpt lat="46.14492" lon="7.04515">
        <ele>455.8</ele>
        <time>2017-02-27T09:09:13Z</time>
      </trkpt>
      <trkpt lat="46.14492" lon="7.04517">
        <ele>455.32</ele>
        <time>2017-02-27T09:09:27Z</time>
      </trkpt>
      <trkpt lat="46.14489" lon="7.0452">
        <ele>456.76</ele>
        <time>2017-02-27T09:09:41Z</time>
      </trkpt>
      <trkpt lat="46.14486" lon="7.04523">
        <ele>457.72</ele>
        <time>2017-02-27T09:09:55Z</time>
      </trkpt>
      <trkpt lat="46.14484" lon="7.04523">
        <ele>458.21</ele>
        <time>2017-02-27T09:10:13Z</time>
      </trkpt>
      <trkpt lat="46.14484" lon="7.04525">
        <ele>459.17</ele>
        <time>2017-02-27T09:10:29Z</time>
      </trkpt>
      <trkpt lat="46.14484" lon="7.04527">
        <ele>459.17</ele>
        <time>2017-02-27T09:10:43Z</time>
      </trkpt>
      <trkpt lat="46.14484" lon="7.04529">
        <ele>459.17</ele>
        <time>2017-02-27T09:10:58Z</time>
      </trkpt>
      <trkpt lat="46.14483" lon="7.04527">
        <ele>457.24</ele>
        <time>2017-02-27T09:11:11Z</time>
      </trkpt>
      <trkpt lat="46.14483" lon="7.04528">
        <ele>454.36</ele>
        <time>2017-02-27T09:11:24Z</time>
      </trkpt>
      <trkpt lat="46.14479" lon="7.04532">
        <ele>454.84</ele>
        <time>2017-02-27T09:11:36Z</time>
      </trkpt>
      <trkpt lat="46.14479" lon="7.04532">
        <ele>454.36</ele>
        <time>2017-02-27T09:11:59Z</time>
      </trkpt>
      <trkpt lat="46.14478" lon="7.04528">
        <ele>455.32</ele>
        <time>2017-02-27T09:12:11Z</time>
      </trkpt>
      <trkpt lat="46.14479" lon="7.04528">
        <ele>455.8</ele>
        <time>2017-02-27T09:12:30Z</time>
      </trkpt>
      <trkpt lat="46.14482" lon="7.04523">
        <ele>452.44</ele>
        <time>2017-02-27T09:12:42Z</time>
      </trkpt>
      <trkpt lat="46.14483" lon="7.04526">
        <ele>453.88</ele>
        <time>2017-02-27T09:12:59Z</time>
      </trkpt>
      <trkpt lat="46.14483" lon="7.04524">
        <ele>453.88</ele>
        <time>2017-02-27T09:13:19Z</time>
      </trkpt>
      <trkpt lat="46.14482" lon="7.04524">
        <ele>453.88</ele>
        <time>2017-02-27T09:13:40Z</time>
      </trkpt>
      <trkpt lat="46.14481" lon="7.04524">
        <ele>454.36</ele>
        <time>2017-02-27T09:13:59Z</time>
      </trkpt>
      <trkpt lat="46.14482" lon="7.04525">
        <ele>454.84</ele>
        <time>2017-02-27T09:14:27Z</time>
      </trkpt>
      <trkpt lat="46.14483" lon="7.04525">
        <ele>453.88</ele>
        <time>2017-02-27T09:14:49Z</time>
      </trkpt>
      <trkpt lat="46.14483" lon="7.04524">
        <ele>453.88</ele>
        <time>2017-02-27T09:15:04Z</time>
      </trkpt>
      <trkpt lat="46.14484" lon="7.04526">
        <ele>453.88</ele>
        <time>2017-02-27T09:15:21Z</time>
      </trkpt>
      <trkpt lat="46.14483" lon="7.04525">
        <ele>453.88</ele>
        <time>2017-02-27T09:15:39Z</time>
      </trkpt>
      <trkpt lat="46.14483" lon="7.04524">
        <ele>454.36</ele>
        <time>2017-02-27T09:15:56Z</time>
      </trkpt>
      <trkpt lat="46.14483" lon="7.04525">
        <ele>453.88</ele>
        <time>2017-02-27T09:16:11Z</time>
      </trkpt>
      <trkpt lat="46.14483" lon="7.04526">
        <ele>453.4</ele>
        <time>2017-02-27T09:16:32Z</time>
      </trkpt>
      <trkpt lat="46.14484" lon="7.04525">
        <ele>453.4</ele>
        <time>2017-02-27T09:16:34Z</time>
      </trkpt>
      <trkpt lat="46.14488" lon="7.04523">
        <ele>452.44</ele>
        <time>2017-02-27T09:16:48Z</time>
      </trkpt>
      <trkpt lat="46.1449" lon="7.0452">
        <ele>452.44</ele>
        <time>2017-02-27T09:16:56Z</time>
      </trkpt>
      <trkpt lat="46.14487" lon="7.04524">
        <ele>453.88</ele>
        <time>2017-02-27T09:17:09Z</time>
      </trkpt>
      <trkpt lat="46.14485" lon="7.04527">
        <ele>453.88</ele>
        <time>2017-02-27T09:17:22Z</time>
      </trkpt>
      <trkpt lat="46.14485" lon="7.04523">
        <ele>453.88</ele>
        <time>2017-02-27T09:17:34Z</time>
      </trkpt>
      <trkpt lat="46.14486" lon="7.04523">
        <ele>454.36</ele>
        <time>2017-02-27T09:17:50Z</time>
      </trkpt>
      <trkpt lat="46.14486" lon="7.04523">
        <ele>455.32</ele>
        <time>2017-02-27T09:18:05Z</time>
      </trkpt>
      <trkpt lat="46.14485" lon="7.04524">
        <ele>456.28</ele>
        <time>2017-02-27T09:18:22Z</time>
      </trkpt>
      <trkpt lat="46.14486" lon="7.04525">
        <ele>455.8</ele>
        <time>2017-02-27T09:18:38Z</time>
      </trkpt>
      <trkpt lat="46.14485" lon="7.04525">
        <ele>455.8</ele>
        <time>2017-02-27T09:18:56Z</time>
      </trkpt>
      <trkpt lat="46.14481" lon="7.04528">
        <ele>455.32</ele>
        <time>2017-02-27T09:19:08Z</time>
      </trkpt>
      <trkpt lat="46.14481" lon="7.04529">
        <ele>455.32</ele>
        <time>2017-02-27T09:19:26Z</time>
      </trkpt>
      <trkpt lat="46.14481" lon="7.0453">
        <ele>455.8</ele>
        <time>2017-02-27T09:19:45Z</time>
      </trkpt>
      <trkpt lat="46.14482" lon="7.0453">
        <ele>456.28</ele>
        <time>2017-02-27T09:20:08Z</time>
      </trkpt>
      <trkpt lat="46.1448" lon="7.04528">
        <ele>455.32</ele>
        <time>2017-02-27T09:20:21Z</time>
      </trkpt>
      <trkpt lat="46.14481" lon="7.04525">
        <ele>454.36</ele>
        <time>2017-02-27T09:20:36Z</time>
      </trkpt>
      <trkpt lat="46.14484" lon="7.04525">
        <ele>452.92</ele>
        <time>2017-02-27T09:20:51Z</time>
      </trkpt>
      <trkpt lat="46.14485" lon="7.04522">
        <ele>453.88</ele>
        <time>2017-02-27T09:21:04Z</time>
      </trkpt>
      <trkpt lat="46.14485" lon="7.04524">
        <ele>455.8</ele>
        <time>2017-02-27T09:21:32Z</time>
      </trkpt>
      <trkpt lat="46.14485" lon="7.04528">
        <ele>456.28</ele>
        <time>2017-02-27T09:21:46Z</time>
      </trkpt>
      <trkpt lat="46.14485" lon="7.04526">
        <ele>456.28</ele>
        <time>2017-02-27T09:22:00Z</time>
      </trkpt>
      <trkpt lat="46.14485" lon="7.04526">
        <ele>456.28</ele>
        <time>2017-02-27T09:22:07Z</time>
      </trkpt>
      <trkpt lat="46.14483" lon="7.04524">
        <ele>456.28</ele>
        <time>2017-02-27T09:22:23Z</time>
      </trkpt>
      <trkpt lat="46.14484" lon="7.04526">
        <ele>456.76</ele>
        <time>2017-02-27T09:22:59Z</time>
      </trkpt>
      <trkpt lat="46.14484" lon="7.04526">
        <ele>458.69</ele>
        <time>2017-02-27T09:23:33Z</time>
      </trkpt>
      <trkpt lat="46.14484" lon="7.04527">
        <ele>458.69</ele>
        <time>2017-02-27T09:23:41Z</time>
      </trkpt>
      <trkpt lat="46.14488" lon="7.04524">
        <ele>459.17</ele>
        <time>2017-02-27T09:23:50Z</time>
      </trkpt>
      <trkpt lat="46.14489" lon="7.04524">
        <ele>459.65</ele>
        <time>2017-02-27T09:24:08Z</time>
      </trkpt>
      <trkpt lat="46.14487" lon="7.04522">
        <ele>460.13</ele>
        <time>2017-02-27T09:24:17Z</time>
      </trkpt>
      <trkpt lat="46.14483" lon="7.04521">
        <ele>459.65</ele>
        <time>2017-02-27T09:24:22Z</time>
      </trkpt>
      <trkpt lat="46.14472" lon="7.04531">
        <ele>459.17</ele>
        <time>2017-02-27T09:24:26Z</time>
      </trkpt>
      <trkpt lat="46.14461" lon="7.04524">
        <ele>457.72</ele>
        <time>2017-02-27T09:24:38Z</time>
      </trkpt>
      <trkpt lat="46.14442" lon="7.04542">
        <ele>456.76</ele>
        <time>2017-02-27T09:24:52Z</time>
      </trkpt>
      <trkpt lat="46.14425" lon="7.04548">
        <ele>457.72</ele>
        <time>2017-02-27T09:25:07Z</time>
      </trkpt>
      <trkpt lat="46.14418" lon="7.04548">
        <ele>457.72</ele>
        <time>2017-02-27T09:25:13Z</time>
      </trkpt>
      <trkpt lat="46.14406" lon="7.04545">
        <ele>458.69</ele>
        <time>2017-02-27T09:25:22Z</time>
      </trkpt>
      <trkpt lat="46.14383" lon="7.04556">
        <ele>459.17</ele>
        <time>2017-02-27T09:25:39Z</time>
      </trkpt>
      <trkpt lat="46.14363" lon="7.04569">
        <ele>460.61</ele>
        <time>2017-02-27T09:25:56Z</time>
      </trkpt>
      <trkpt lat="46.14344" lon="7.0458">
        <ele>458.69</ele>
        <time>2017-02-27T09:26:11Z</time>
      </trkpt>
      <trkpt lat="46.14321" lon="7.04585">
        <ele>454.36</ele>
        <time>2017-02-27T09:26:28Z</time>
      </trkpt>
      <trkpt lat="46.14303" lon="7.04602">
        <ele>453.88</ele>
        <time>2017-02-27T09:26:43Z</time>
      </trkpt>
      <trkpt lat="46.14283" lon="7.04626">
        <ele>451</ele>
        <time>2017-02-27T09:27:02Z</time>
      </trkpt>
      <trkpt lat="46.14268" lon="7.0465">
        <ele>451.96</ele>
        <time>2017-02-27T09:27:18Z</time>
      </trkpt>
      <trkpt lat="46.14253" lon="7.04676">
        <ele>454.36</ele>
        <time>2017-02-27T09:27:33Z</time>
      </trkpt>
      <trkpt lat="46.14236" lon="7.04701">
        <ele>456.76</ele>
        <time>2017-02-27T09:27:50Z</time>
      </trkpt>
      <trkpt lat="46.14221" lon="7.04724">
        <ele>457.72</ele>
        <time>2017-02-27T09:28:05Z</time>
      </trkpt>
      <trkpt lat="46.14207" lon="7.04745">
        <ele>457.72</ele>
        <time>2017-02-27T09:28:20Z</time>
      </trkpt>
      <trkpt lat="46.14191" lon="7.04771">
        <ele>455.8</ele>
        <time>2017-02-27T09:28:38Z</time>
      </trkpt>
      <trkpt lat="46.14188" lon="7.04774">
        <ele>455.8</ele>
        <time>2017-02-27T09:28:40Z</time>
      </trkpt>
      <trkpt lat="46.14169" lon="7.04803">
        <ele>456.28</ele>
        <time>2017-02-27T09:28:59Z</time>
      </trkpt>
      <trkpt lat="46.14151" lon="7.04825">
        <ele>455.8</ele>
        <time>2017-02-27T09:29:16Z</time>
      </trkpt>
      <trkpt lat="46.14135" lon="7.04848">
        <ele>453.88</ele>
        <time>2017-02-27T09:29:32Z</time>
      </trkpt>
      <trkpt lat="46.14118" lon="7.04871">
        <ele>455.32</ele>
        <time>2017-02-27T09:29:48Z</time>
      </trkpt>
      <trkpt lat="46.14103" lon="7.04893">
        <ele>458.69</ele>
        <time>2017-02-27T09:30:03Z</time>
      </trkpt>
      <trkpt lat="46.14088" lon="7.04914">
        <ele>459.65</ele>
        <time>2017-02-27T09:30:17Z</time>
      </trkpt>
      <trkpt lat="46.14074" lon="7.04932">
        <ele>460.13</ele>
        <time>2017-02-27T09:30:31Z</time>
      </trkpt>
      <trkpt lat="46.14055" lon="7.04954">
        <ele>462.05</ele>
        <time>2017-02-27T09:30:48Z</time>
      </trkpt>
      <trkpt lat="46.14037" lon="7.04974">
        <ele>461.09</ele>
        <time>2017-02-27T09:31:04Z</time>
      </trkpt>
      <trkpt lat="46.14022" lon="7.04994">
        <ele>463.01</ele>
        <time>2017-02-27T09:31:18Z</time>
      </trkpt>
      <trkpt lat="46.14006" lon="7.05014">
        <ele>465.9</ele>
        <time>2017-02-27T09:31:33Z</time>
      </trkpt>
      <trkpt lat="46.1399" lon="7.05029">
        <ele>467.34</ele>
        <time>2017-02-27T09:31:47Z</time>
      </trkpt>
      <trkpt lat="46.13975" lon="7.05044">
        <ele>470.22</ele>
        <time>2017-02-27T09:32:01Z</time>
      </trkpt>
      <trkpt lat="46.13974" lon="7.05045">
        <ele>470.22</ele>
        <time>2017-02-27T09:32:02Z</time>
      </trkpt>
      <trkpt lat="46.13956" lon="7.05065">
        <ele>473.59</ele>
        <time>2017-02-27T09:32:18Z</time>
      </trkpt>
      <trkpt lat="46.13955" lon="7.05066">
        <ele>473.11</ele>
        <time>2017-02-27T09:32:19Z</time>
      </trkpt>
      <trkpt lat="46.13937" lon="7.05092">
        <ele>470.22</ele>
        <time>2017-02-27T09:32:35Z</time>
      </trkpt>
      <trkpt lat="46.13916" lon="7.05117">
        <ele>469.74</ele>
        <time>2017-02-27T09:32:52Z</time>
      </trkpt>
      <trkpt lat="46.13896" lon="7.0514">
        <ele>469.74</ele>
        <time>2017-02-27T09:33:09Z</time>
      </trkpt>
      <trkpt lat="46.13879" lon="7.05159">
        <ele>472.14</ele>
        <time>2017-02-27T09:33:25Z</time>
      </trkpt>
      <trkpt lat="46.13861" lon="7.05178">
        <ele>473.11</ele>
        <time>2017-02-27T09:33:41Z</time>
      </trkpt>
      <trkpt lat="46.13843" lon="7.05198">
        <ele>470.7</ele>
        <time>2017-02-27T09:33:57Z</time>
      </trkpt>
      <trkpt lat="46.13826" lon="7.05217">
        <ele>469.74</ele>
        <time>2017-02-27T09:34:12Z</time>
      </trkpt>
      <trkpt lat="46.13811" lon="7.05237">
        <ele>467.34</ele>
        <time>2017-02-27T09:34:25Z</time>
      </trkpt>
      <trkpt lat="46.13803" lon="7.05247">
        <ele>466.86</ele>
        <time>2017-02-27T09:34:32Z</time>
      </trkpt>
      <trkpt lat="46.13785" lon="7.05267">
        <ele>469.26</ele>
        <time>2017-02-27T09:34:48Z</time>
      </trkpt>
      <trkpt lat="46.13769" lon="7.05284">
        <ele>469.74</ele>
        <time>2017-02-27T09:35:01Z</time>
      </trkpt>
      <trkpt lat="46.13752" lon="7.05305">
        <ele>465.9</ele>
        <time>2017-02-27T09:35:17Z</time>
      </trkpt>
      <trkpt lat="46.13749" lon="7.05308">
        <ele>465.9</ele>
        <time>2017-02-27T09:35:20Z</time>
      </trkpt>
      <trkpt lat="46.13731" lon="7.0533">
        <ele>463.01</ele>
        <time>2017-02-27T09:35:36Z</time>
      </trkpt>
      <trkpt lat="46.13714" lon="7.05349">
        <ele>464.93</ele>
        <time>2017-02-27T09:35:51Z</time>
      </trkpt>
      <trkpt lat="46.13707" lon="7.05363">
        <ele>465.9</ele>
        <time>2017-02-27T09:36:00Z</time>
      </trkpt>
      <trkpt lat="46.13686" lon="7.0539">
        <ele>465.9</ele>
        <time>2017-02-27T09:36:19Z</time>
      </trkpt>
      <trkpt lat="46.13682" lon="7.05393">
        <ele>465.9</ele>
        <time>2017-02-27T09:36:23Z</time>
      </trkpt>
      <trkpt lat="46.13677" lon="7.05409">
        <ele>465.42</ele>
        <time>2017-02-27T09:36:37Z</time>
      </trkpt>
      <trkpt lat="46.13677" lon="7.0541">
        <ele>465.42</ele>
        <time>2017-02-27T09:37:00Z</time>
      </trkpt>
      <trkpt lat="46.13665" lon="7.05423">
        <ele>463.97</ele>
        <time>2017-02-27T09:37:13Z</time>
      </trkpt>
      <trkpt lat="46.13654" lon="7.05437">
        <ele>463.01</ele>
        <time>2017-02-27T09:37:25Z</time>
      </trkpt>
      <trkpt lat="46.13642" lon="7.0545">
        <ele>461.57</ele>
        <time>2017-02-27T09:37:40Z</time>
      </trkpt>
      <trkpt lat="46.13635" lon="7.05458">
        <ele>462.05</ele>
        <time>2017-02-27T09:37:51Z</time>
      </trkpt>
      <trkpt lat="46.1362" lon="7.05474">
        <ele>461.57</ele>
        <time>2017-02-27T09:38:05Z</time>
      </trkpt>
      <trkpt lat="46.13604" lon="7.05493">
        <ele>461.57</ele>
        <time>2017-02-27T09:38:19Z</time>
      </trkpt>
      <trkpt lat="46.13588" lon="7.0551">
        <ele>461.57</ele>
        <time>2017-02-27T09:38:34Z</time>
      </trkpt>
      <trkpt lat="46.13573" lon="7.05527">
        <ele>461.57</ele>
        <time>2017-02-27T09:38:48Z</time>
      </trkpt>
      <trkpt lat="46.13555" lon="7.05538">
        <ele>463.97</ele>
        <time>2017-02-27T09:39:02Z</time>
      </trkpt>
      <trkpt lat="46.13543" lon="7.05561">
        <ele>463.49</ele>
        <time>2017-02-27T09:39:16Z</time>
      </trkpt>
      <trkpt lat="46.13541" lon="7.05568">
        <ele>462.05</ele>
        <time>2017-02-27T09:39:21Z</time>
      </trkpt>
      <trkpt lat="46.13536" lon="7.0558">
        <ele>461.57</ele>
        <time>2017-02-27T09:39:29Z</time>
      </trkpt>
      <trkpt lat="46.13525" lon="7.05591">
        <ele>459.65</ele>
        <time>2017-02-27T09:39:45Z</time>
      </trkpt>
      <trkpt lat="46.13526" lon="7.05599">
        <ele>458.21</ele>
        <time>2017-02-27T09:39:58Z</time>
      </trkpt>
      <trkpt lat="46.13526" lon="7.05602">
        <ele>459.65</ele>
        <time>2017-02-27T09:40:11Z</time>
      </trkpt>
      <trkpt lat="46.13525" lon="7.05601">
        <ele>460.61</ele>
        <time>2017-02-27T09:40:34Z</time>
      </trkpt>
      <trkpt lat="46.13512" lon="7.05615">
        <ele>463.49</ele>
        <time>2017-02-27T09:40:49Z</time>
      </trkpt>
      <trkpt lat="46.13496" lon="7.05631">
        <ele>464.45</ele>
        <time>2017-02-27T09:41:04Z</time>
      </trkpt>
      <trkpt lat="46.13486" lon="7.05641">
        <ele>465.9</ele>
        <time>2017-02-27T09:41:15Z</time>
      </trkpt>
      <trkpt lat="46.13476" lon="7.05649">
        <ele>466.86</ele>
        <time>2017-02-27T09:41:24Z</time>
      </trkpt>
      <trkpt lat="46.13464" lon="7.05656">
        <ele>468.78</ele>
        <time>2017-02-27T09:41:34Z</time>
      </trkpt>
      <trkpt lat="46.13449" lon="7.05668">
        <ele>468.78</ele>
        <time>2017-02-27T09:41:49Z</time>
      </trkpt>
      <trkpt lat="46.13439" lon="7.05683">
        <ele>469.26</ele>
        <time>2017-02-27T09:42:03Z</time>
      </trkpt>
      <trkpt lat="46.13434" lon="7.05689">
        <ele>469.26</ele>
        <time>2017-02-27T09:42:10Z</time>
      </trkpt>
      <trkpt lat="46.13422" lon="7.05702">
        <ele>469.26</ele>
        <time>2017-02-27T09:42:25Z</time>
      </trkpt>
      <trkpt lat="46.13411" lon="7.05708">
        <ele>465.9</ele>
        <time>2017-02-27T09:42:38Z</time>
      </trkpt>
      <trkpt lat="46.13406" lon="7.05713">
        <ele>464.45</ele>
        <time>2017-02-27T09:42:50Z</time>
      </trkpt>
      <trkpt lat="46.13398" lon="7.05725">
        <ele>464.93</ele>
        <time>2017-02-27T09:43:01Z</time>
      </trkpt>
      <trkpt lat="46.13382" lon="7.05746">
        <ele>466.38</ele>
        <time>2017-02-27T09:43:19Z</time>
      </trkpt>
      <trkpt lat="46.13372" lon="7.05755">
        <ele>466.38</ele>
        <time>2017-02-27T09:43:29Z</time>
      </trkpt>
      <trkpt lat="46.13357" lon="7.05774">
        <ele>464.45</ele>
        <time>2017-02-27T09:43:44Z</time>
      </trkpt>
      <trkpt lat="46.13342" lon="7.05792">
        <ele>464.93</ele>
        <time>2017-02-27T09:44:00Z</time>
      </trkpt>
      <trkpt lat="46.13333" lon="7.05804">
        <ele>463.97</ele>
        <time>2017-02-27T09:44:12Z</time>
      </trkpt>
      <trkpt lat="46.13326" lon="7.0581">
        <ele>463.49</ele>
        <time>2017-02-27T09:44:20Z</time>
      </trkpt>
      <trkpt lat="46.13314" lon="7.05829">
        <ele>461.57</ele>
        <time>2017-02-27T09:44:35Z</time>
      </trkpt>
      <trkpt lat="46.13308" lon="7.05844">
        <ele>463.01</ele>
        <time>2017-02-27T09:44:49Z</time>
      </trkpt>
      <trkpt lat="46.13302" lon="7.05848">
        <ele>462.53</ele>
        <time>2017-02-27T09:44:59Z</time>
      </trkpt>
      <trkpt lat="46.13298" lon="7.05853">
        <ele>462.53</ele>
        <time>2017-02-27T09:45:04Z</time>
      </trkpt>
      <trkpt lat="46.13287" lon="7.05872">
        <ele>463.01</ele>
        <time>2017-02-27T09:45:19Z</time>
      </trkpt>
      <trkpt lat="46.13269" lon="7.05894">
        <ele>462.53</ele>
        <time>2017-02-27T09:45:35Z</time>
      </trkpt>
      <trkpt lat="46.13264" lon="7.05897">
        <ele>463.01</ele>
        <time>2017-02-27T09:45:39Z</time>
      </trkpt>
      <trkpt lat="46.13251" lon="7.05909">
        <ele>462.05</ele>
        <time>2017-02-27T09:45:53Z</time>
      </trkpt>
      <trkpt lat="46.13235" lon="7.05918">
        <ele>461.09</ele>
        <time>2017-02-27T09:46:06Z</time>
      </trkpt>
      <trkpt lat="46.13212" lon="7.05932">
        <ele>459.17</ele>
        <time>2017-02-27T09:46:22Z</time>
      </trkpt>
      <trkpt lat="46.13198" lon="7.05949">
        <ele>460.61</ele>
        <time>2017-02-27T09:46:36Z</time>
      </trkpt>
      <trkpt lat="46.13188" lon="7.05966">
        <ele>459.65</ele>
        <time>2017-02-27T09:46:48Z</time>
      </trkpt>
      <trkpt lat="46.13182" lon="7.05989">
        <ele>460.13</ele>
        <time>2017-02-27T09:47:02Z</time>
      </trkpt>
      <trkpt lat="46.13179" lon="7.05994">
        <ele>460.13</ele>
        <time>2017-02-27T09:47:05Z</time>
      </trkpt>
      <trkpt lat="46.13167" lon="7.06018">
        <ele>464.93</ele>
        <time>2017-02-27T09:47:20Z</time>
      </trkpt>
      <trkpt lat="46.13157" lon="7.06035">
        <ele>466.38</ele>
        <time>2017-02-27T09:47:31Z</time>
      </trkpt>
      <trkpt lat="46.13143" lon="7.06051">
        <ele>465.9</ele>
        <time>2017-02-27T09:47:45Z</time>
      </trkpt>
      <trkpt lat="46.13139" lon="7.06055">
        <ele>466.38</ele>
        <time>2017-02-27T09:47:49Z</time>
      </trkpt>
      <trkpt lat="46.13127" lon="7.06071">
        <ele>464.45</ele>
        <time>2017-02-27T09:48:02Z</time>
      </trkpt>
      <trkpt lat="46.13119" lon="7.06076">
        <ele>463.01</ele>
        <time>2017-02-27T09:48:09Z</time>
      </trkpt>
      <trkpt lat="46.131" lon="7.06085">
        <ele>461.09</ele>
        <time>2017-02-27T09:48:25Z</time>
      </trkpt>
      <trkpt lat="46.13095" lon="7.06087">
        <ele>461.09</ele>
        <time>2017-02-27T09:48:29Z</time>
      </trkpt>
      <trkpt lat="46.13084" lon="7.06108">
        <ele>460.61</ele>
        <time>2017-02-27T09:48:44Z</time>
      </trkpt>
      <trkpt lat="46.1308" lon="7.06119">
        <ele>460.61</ele>
        <time>2017-02-27T09:48:51Z</time>
      </trkpt>
      <trkpt lat="46.13064" lon="7.0614">
        <ele>460.61</ele>
        <time>2017-02-27T09:49:05Z</time>
      </trkpt>
      <trkpt lat="46.13054" lon="7.06156">
        <ele>461.09</ele>
        <time>2017-02-27T09:49:17Z</time>
      </trkpt>
      <trkpt lat="46.13049" lon="7.06175">
        <ele>463.01</ele>
        <time>2017-02-27T09:49:29Z</time>
      </trkpt>
      <trkpt lat="46.13042" lon="7.06187">
        <ele>463.49</ele>
        <time>2017-02-27T09:49:41Z</time>
      </trkpt>
      <trkpt lat="46.13031" lon="7.06197">
        <ele>463.97</ele>
        <time>2017-02-27T09:49:56Z</time>
      </trkpt>
      <trkpt lat="46.13021" lon="7.06207">
        <ele>466.86</ele>
        <time>2017-02-27T09:50:10Z</time>
      </trkpt>
      <trkpt lat="46.13009" lon="7.06226">
        <ele>465.42</ele>
        <time>2017-02-27T09:50:26Z</time>
      </trkpt>
      <trkpt lat="46.12998" lon="7.06238">
        <ele>465.42</ele>
        <time>2017-02-27T09:50:41Z</time>
      </trkpt>
      <trkpt lat="46.12987" lon="7.06256">
        <ele>463.97</ele>
        <time>2017-02-27T09:50:57Z</time>
      </trkpt>
      <trkpt lat="46.12976" lon="7.06269">
        <ele>465.42</ele>
        <time>2017-02-27T09:51:10Z</time>
      </trkpt>
      <trkpt lat="46.12965" lon="7.06285">
        <ele>467.34</ele>
        <time>2017-02-27T09:51:24Z</time>
      </trkpt>
      <trkpt lat="46.12951" lon="7.06304">
        <ele>470.22</ele>
        <time>2017-02-27T09:51:41Z</time>
      </trkpt>
      <trkpt lat="46.12948" lon="7.06309">
        <ele>470.7</ele>
        <time>2017-02-27T09:51:45Z</time>
      </trkpt>
      <trkpt lat="46.12935" lon="7.06323">
        <ele>472.63</ele>
        <time>2017-02-27T09:52:01Z</time>
      </trkpt>
      <trkpt lat="46.12933" lon="7.06328">
        <ele>475.51</ele>
        <time>2017-02-27T09:52:17Z</time>
      </trkpt>
      <trkpt lat="46.12925" lon="7.06337">
        <ele>477.91</ele>
        <time>2017-02-27T09:52:30Z</time>
      </trkpt>
      <trkpt lat="46.12916" lon="7.06353">
        <ele>475.99</ele>
        <time>2017-02-27T09:52:43Z</time>
      </trkpt>
      <trkpt lat="46.12905" lon="7.06373">
        <ele>478.39</ele>
        <time>2017-02-27T09:52:58Z</time>
      </trkpt>
      <trkpt lat="46.12899" lon="7.06391">
        <ele>480.8</ele>
        <time>2017-02-27T09:53:14Z</time>
      </trkpt>
      <trkpt lat="46.12888" lon="7.06404">
        <ele>483.68</ele>
        <time>2017-02-27T09:53:28Z</time>
      </trkpt>
      <trkpt lat="46.12883" lon="7.0641">
        <ele>485.12</ele>
        <time>2017-02-27T09:53:40Z</time>
      </trkpt>
      <trkpt lat="46.12869" lon="7.06428">
        <ele>485.6</ele>
        <time>2017-02-27T09:53:58Z</time>
      </trkpt>
      <trkpt lat="46.12861" lon="7.06443">
        <ele>486.08</ele>
        <time>2017-02-27T09:54:13Z</time>
      </trkpt>
      <trkpt lat="46.12849" lon="7.06459">
        <ele>484.64</ele>
        <time>2017-02-27T09:54:28Z</time>
      </trkpt>
      <trkpt lat="46.12844" lon="7.06466">
        <ele>485.6</ele>
        <time>2017-02-27T09:54:34Z</time>
      </trkpt>
      <trkpt lat="46.12827" lon="7.06482">
        <ele>488.97</ele>
        <time>2017-02-27T09:54:49Z</time>
      </trkpt>
      <trkpt lat="46.12818" lon="7.06498">
        <ele>489.93</ele>
        <time>2017-02-27T09:55:03Z</time>
      </trkpt>
      <trkpt lat="46.12806" lon="7.06511">
        <ele>492.81</ele>
        <time>2017-02-27T09:55:19Z</time>
      </trkpt>
      <trkpt lat="46.12792" lon="7.06525">
        <ele>496.66</ele>
        <time>2017-02-27T09:55:34Z</time>
      </trkpt>
      <trkpt lat="46.12784" lon="7.06539">
        <ele>497.62</ele>
        <time>2017-02-27T09:55:48Z</time>
      </trkpt>
      <trkpt lat="46.1278" lon="7.06547">
        <ele>499.06</ele>
        <time>2017-02-27T09:56:00Z</time>
      </trkpt>
      <trkpt lat="46.1277" lon="7.06565">
        <ele>499.54</ele>
        <time>2017-02-27T09:56:15Z</time>
      </trkpt>
      <trkpt lat="46.12763" lon="7.06578">
        <ele>499.06</ele>
        <time>2017-02-27T09:56:27Z</time>
      </trkpt>
      <trkpt lat="46.12756" lon="7.0659">
        <ele>499.54</ele>
        <time>2017-02-27T09:56:40Z</time>
      </trkpt>
      <trkpt lat="46.12745" lon="7.06606">
        <ele>500.5</ele>
        <time>2017-02-27T09:56:54Z</time>
      </trkpt>
      <trkpt lat="46.12734" lon="7.06623">
        <ele>500.5</ele>
        <time>2017-02-27T09:57:08Z</time>
      </trkpt>
      <trkpt lat="46.12725" lon="7.06637">
        <ele>501.95</ele>
        <time>2017-02-27T09:57:23Z</time>
      </trkpt>
      <trkpt lat="46.12715" lon="7.06652">
        <ele>503.39</ele>
        <time>2017-02-27T09:57:37Z</time>
      </trkpt>
      <trkpt lat="46.12703" lon="7.06665">
        <ele>505.31</ele>
        <time>2017-02-27T09:57:51Z</time>
      </trkpt>
      <trkpt lat="46.12692" lon="7.06676">
        <ele>505.79</ele>
        <time>2017-02-27T09:58:06Z</time>
      </trkpt>
      <trkpt lat="46.1268" lon="7.06694">
        <ele>507.23</ele>
        <time>2017-02-27T09:58:22Z</time>
      </trkpt>
      <trkpt lat="46.12668" lon="7.06703">
        <ele>507.71</ele>
        <time>2017-02-27T09:58:37Z</time>
      </trkpt>
      <trkpt lat="46.12657" lon="7.06717">
        <ele>508.67</ele>
        <time>2017-02-27T09:58:53Z</time>
      </trkpt>
      <trkpt lat="46.12654" lon="7.06731">
        <ele>507.71</ele>
        <time>2017-02-27T09:58:57Z</time>
      </trkpt>
      <trkpt lat="46.12641" lon="7.06759">
        <ele>509.64</ele>
        <time>2017-02-27T09:59:14Z</time>
      </trkpt>
      <trkpt lat="46.1263" lon="7.06773">
        <ele>511.08</ele>
        <time>2017-02-27T09:59:27Z</time>
      </trkpt>
      <trkpt lat="46.12623" lon="7.06773">
        <ele>513.48</ele>
        <time>2017-02-27T09:59:43Z</time>
      </trkpt>
      <trkpt lat="46.12612" lon="7.06776">
        <ele>519.25</ele>
        <time>2017-02-27T09:59:58Z</time>
      </trkpt>
      <trkpt lat="46.12602" lon="7.06777">
        <ele>524.54</ele>
        <time>2017-02-27T10:00:09Z</time>
      </trkpt>
      <trkpt lat="46.12589" lon="7.06786">
        <ele>530.3</ele>
        <time>2017-02-27T10:00:25Z</time>
      </trkpt>
      <trkpt lat="46.12581" lon="7.06788">
        <ele>534.15</ele>
        <time>2017-02-27T10:00:38Z</time>
      </trkpt>
      <trkpt lat="46.12573" lon="7.06792">
        <ele>537.51</ele>
        <time>2017-02-27T10:00:51Z</time>
      </trkpt>
      <trkpt lat="46.12561" lon="7.06801">
        <ele>538.96</ele>
        <time>2017-02-27T10:01:06Z</time>
      </trkpt>
      <trkpt lat="46.12551" lon="7.06816">
        <ele>542.32</ele>
        <time>2017-02-27T10:01:25Z</time>
      </trkpt>
      <trkpt lat="46.12545" lon="7.06824">
        <ele>544.24</ele>
        <time>2017-02-27T10:01:39Z</time>
      </trkpt>
      <trkpt lat="46.12539" lon="7.06836">
        <ele>546.17</ele>
        <time>2017-02-27T10:01:52Z</time>
      </trkpt>
      <trkpt lat="46.12533" lon="7.06846">
        <ele>547.13</ele>
        <time>2017-02-27T10:02:06Z</time>
      </trkpt>
      <trkpt lat="46.12525" lon="7.06858">
        <ele>550.49</ele>
        <time>2017-02-27T10:02:22Z</time>
      </trkpt>
      <trkpt lat="46.12516" lon="7.06873">
        <ele>553.86</ele>
        <time>2017-02-27T10:02:40Z</time>
      </trkpt>
      <trkpt lat="46.12505" lon="7.06887">
        <ele>555.78</ele>
        <time>2017-02-27T10:02:56Z</time>
      </trkpt>
      <trkpt lat="46.12495" lon="7.069">
        <ele>556.74</ele>
        <time>2017-02-27T10:03:11Z</time>
      </trkpt>
      <trkpt lat="46.12487" lon="7.06914">
        <ele>559.62</ele>
        <time>2017-02-27T10:03:27Z</time>
      </trkpt>
      <trkpt lat="46.12482" lon="7.06922">
        <ele>560.11</ele>
        <time>2017-02-27T10:03:42Z</time>
      </trkpt>
      <trkpt lat="46.12472" lon="7.06935">
        <ele>562.03</ele>
        <time>2017-02-27T10:03:59Z</time>
      </trkpt>
      <trkpt lat="46.12463" lon="7.0695">
        <ele>563.47</ele>
        <time>2017-02-27T10:04:13Z</time>
      </trkpt>
      <trkpt lat="46.12455" lon="7.06968">
        <ele>563.95</ele>
        <time>2017-02-27T10:04:27Z</time>
      </trkpt>
      <trkpt lat="46.12443" lon="7.06985">
        <ele>566.83</ele>
        <time>2017-02-27T10:04:43Z</time>
      </trkpt>
      <trkpt lat="46.12428" lon="7.06997">
        <ele>571.16</ele>
        <time>2017-02-27T10:04:57Z</time>
      </trkpt>
      <trkpt lat="46.12416" lon="7.07009">
        <ele>572.6</ele>
        <time>2017-02-27T10:05:11Z</time>
      </trkpt>
      <trkpt lat="46.12402" lon="7.07021">
        <ele>573.56</ele>
        <time>2017-02-27T10:05:24Z</time>
      </trkpt>
      <trkpt lat="46.12395" lon="7.07023">
        <ele>574.04</ele>
        <time>2017-02-27T10:05:29Z</time>
      </trkpt>
      <trkpt lat="46.12382" lon="7.07023">
        <ele>577.41</ele>
        <time>2017-02-27T10:05:43Z</time>
      </trkpt>
      <trkpt lat="46.12372" lon="7.07025">
        <ele>581.25</ele>
        <time>2017-02-27T10:05:55Z</time>
      </trkpt>
      <trkpt lat="46.12365" lon="7.07024">
        <ele>585.58</ele>
        <time>2017-02-27T10:06:07Z</time>
      </trkpt>
      <trkpt lat="46.12354" lon="7.07029">
        <ele>586.54</ele>
        <time>2017-02-27T10:06:18Z</time>
      </trkpt>
      <trkpt lat="46.12344" lon="7.07032">
        <ele>587.98</ele>
        <time>2017-02-27T10:06:31Z</time>
      </trkpt>
      <trkpt lat="46.1234" lon="7.07035">
        <ele>590.87</ele>
        <time>2017-02-27T10:06:45Z</time>
      </trkpt>
      <trkpt lat="46.12323" lon="7.07042">
        <ele>595.19</ele>
        <time>2017-02-27T10:06:59Z</time>
      </trkpt>
      <trkpt lat="46.12318" lon="7.07042">
        <ele>595.19</ele>
        <time>2017-02-27T10:07:03Z</time>
      </trkpt>
      <trkpt lat="46.12313" lon="7.07045">
        <ele>594.71</ele>
        <time>2017-02-27T10:07:09Z</time>
      </trkpt>
      <trkpt lat="46.12297" lon="7.07052">
        <ele>593.27</ele>
        <time>2017-02-27T10:07:24Z</time>
      </trkpt>
      <trkpt lat="46.12288" lon="7.07057">
        <ele>591.83</ele>
        <time>2017-02-27T10:07:37Z</time>
      </trkpt>
      <trkpt lat="46.12278" lon="7.0706">
        <ele>592.31</ele>
        <time>2017-02-27T10:07:52Z</time>
      </trkpt>
      <trkpt lat="46.12277" lon="7.07061">
        <ele>592.31</ele>
        <time>2017-02-27T10:07:53Z</time>
      </trkpt>
      <trkpt lat="46.12275" lon="7.0706">
        <ele>592.31</ele>
        <time>2017-02-27T10:07:55Z</time>
      </trkpt>
      <trkpt lat="46.12273" lon="7.07052">
        <ele>590.87</ele>
        <time>2017-02-27T10:08:01Z</time>
      </trkpt>
      <trkpt lat="46.12263" lon="7.07047">
        <ele>586.06</ele>
        <time>2017-02-27T10:08:13Z</time>
      </trkpt>
      <trkpt lat="46.12253" lon="7.07048">
        <ele>583.66</ele>
        <time>2017-02-27T10:08:23Z</time>
      </trkpt>
      <trkpt lat="46.12248" lon="7.07046">
        <ele>581.73</ele>
        <time>2017-02-27T10:08:28Z</time>
      </trkpt>
      <trkpt lat="46.12231" lon="7.07033">
        <ele>577.41</ele>
        <time>2017-02-27T10:08:45Z</time>
      </trkpt>
      <trkpt lat="46.12227" lon="7.07032">
        <ele>576.45</ele>
        <time>2017-02-27T10:08:48Z</time>
      </trkpt>
      <trkpt lat="46.12224" lon="7.07032">
        <ele>576.45</ele>
        <time>2017-02-27T10:09:02Z</time>
      </trkpt>
      <trkpt lat="46.12219" lon="7.07034">
        <ele>575.49</ele>
        <time>2017-02-27T10:09:19Z</time>
      </trkpt>
      <trkpt lat="46.12219" lon="7.07034">
        <ele>575.97</ele>
        <time>2017-02-27T10:09:22Z</time>
      </trkpt>
      <trkpt lat="46.12204" lon="7.07032">
        <ele>575.49</ele>
        <time>2017-02-27T10:09:36Z</time>
      </trkpt>
      <trkpt lat="46.12198" lon="7.07037">
        <ele>576.93</ele>
        <time>2017-02-27T10:09:51Z</time>
      </trkpt>
      <trkpt lat="46.12196" lon="7.07042">
        <ele>577.89</ele>
        <time>2017-02-27T10:09:57Z</time>
      </trkpt>
      <trkpt lat="46.12189" lon="7.07054">
        <ele>581.25</ele>
        <time>2017-02-27T10:10:11Z</time>
      </trkpt>
      <trkpt lat="46.12188" lon="7.07057">
        <ele>581.25</ele>
        <time>2017-02-27T10:10:13Z</time>
      </trkpt>
      <trkpt lat="46.12183" lon="7.07071">
        <ele>582.7</ele>
        <time>2017-02-27T10:10:21Z</time>
      </trkpt>
      <trkpt lat="46.12186" lon="7.07078">
        <ele>583.18</ele>
        <time>2017-02-27T10:10:26Z</time>
      </trkpt>
      <trkpt lat="46.1219" lon="7.07092">
        <ele>583.18</ele>
        <time>2017-02-27T10:10:34Z</time>
      </trkpt>
      <trkpt lat="46.12199" lon="7.07119">
        <ele>579.81</ele>
        <time>2017-02-27T10:10:51Z</time>
      </trkpt>
      <trkpt lat="46.122" lon="7.07133">
        <ele>578.85</ele>
        <time>2017-02-27T10:10:59Z</time>
      </trkpt>
      <trkpt lat="46.12204" lon="7.07138">
        <ele>579.33</ele>
        <time>2017-02-27T10:11:04Z</time>
      </trkpt>
      <trkpt lat="46.12204" lon="7.07154">
        <ele>578.37</ele>
        <time>2017-02-27T10:11:13Z</time>
      </trkpt>
      <trkpt lat="46.12207" lon="7.07163">
        <ele>576.93</ele>
        <time>2017-02-27T10:11:19Z</time>
      </trkpt>
      <trkpt lat="46.12218" lon="7.07175">
        <ele>575.01</ele>
        <time>2017-02-27T10:11:32Z</time>
      </trkpt>
      <trkpt lat="46.12221" lon="7.07185">
        <ele>573.56</ele>
        <time>2017-02-27T10:11:44Z</time>
      </trkpt>
      <trkpt lat="46.12222" lon="7.07189">
        <ele>573.08</ele>
        <time>2017-02-27T10:11:46Z</time>
      </trkpt>
      <trkpt lat="46.1222" lon="7.07199">
        <ele>569.72</ele>
        <time>2017-02-27T10:11:58Z</time>
      </trkpt>
      <trkpt lat="46.12213" lon="7.07194">
        <ele>567.32</ele>
        <time>2017-02-27T10:12:11Z</time>
      </trkpt>
      <trkpt lat="46.12213" lon="7.07212">
        <ele>562.51</ele>
        <time>2017-02-27T10:12:27Z</time>
      </trkpt>
      <trkpt lat="46.12214" lon="7.07218">
        <ele>561.07</ele>
        <time>2017-02-27T10:12:31Z</time>
      </trkpt>
      <trkpt lat="46.12226" lon="7.07238">
        <ele>557.22</ele>
        <time>2017-02-27T10:12:46Z</time>
      </trkpt>
      <trkpt lat="46.12237" lon="7.07248">
        <ele>556.74</ele>
        <time>2017-02-27T10:13:00Z</time>
      </trkpt>
      <trkpt lat="46.12246" lon="7.07268">
        <ele>560.11</ele>
        <time>2017-02-27T10:13:15Z</time>
      </trkpt>
      <trkpt lat="46.12251" lon="7.07284">
        <ele>561.55</ele>
        <time>2017-02-27T10:13:27Z</time>
      </trkpt>
      <trkpt lat="46.12256" lon="7.07297">
        <ele>562.03</ele>
        <time>2017-02-27T10:13:40Z</time>
      </trkpt>
      <trkpt lat="46.12258" lon="7.07313">
        <ele>562.51</ele>
        <time>2017-02-27T10:13:49Z</time>
      </trkpt>
      <trkpt lat="46.12263" lon="7.07334">
        <ele>561.07</ele>
        <time>2017-02-27T10:14:02Z</time>
      </trkpt>
      <trkpt lat="46.12267" lon="7.07348">
        <ele>558.66</ele>
        <time>2017-02-27T10:14:10Z</time>
      </trkpt>
      <trkpt lat="46.12275" lon="7.07373">
        <ele>555.78</ele>
        <time>2017-02-27T10:14:23Z</time>
      </trkpt>
      <trkpt lat="46.12284" lon="7.07392">
        <ele>550.49</ele>
        <time>2017-02-27T10:14:37Z</time>
      </trkpt>
      <trkpt lat="46.12289" lon="7.07406">
        <ele>549.53</ele>
        <time>2017-02-27T10:14:44Z</time>
      </trkpt>
      <trkpt lat="46.12299" lon="7.07424">
        <ele>548.09</ele>
        <time>2017-02-27T10:14:57Z</time>
      </trkpt>
      <trkpt lat="46.12303" lon="7.07431">
        <ele>549.53</ele>
        <time>2017-02-27T10:15:02Z</time>
      </trkpt>
      <trkpt lat="46.12314" lon="7.07452">
        <ele>551.45</ele>
        <time>2017-02-27T10:15:17Z</time>
      </trkpt>
      <trkpt lat="46.12318" lon="7.0746">
        <ele>551.45</ele>
        <time>2017-02-27T10:15:22Z</time>
      </trkpt>
      <trkpt lat="46.12325" lon="7.07484">
        <ele>551.45</ele>
        <time>2017-02-27T10:15:36Z</time>
      </trkpt>
      <trkpt lat="46.1233" lon="7.07504">
        <ele>547.61</ele>
        <time>2017-02-27T10:15:48Z</time>
      </trkpt>
      <trkpt lat="46.12334" lon="7.07515">
        <ele>543.76</ele>
        <time>2017-02-27T10:15:55Z</time>
      </trkpt>
      <trkpt lat="46.12339" lon="7.07527">
        <ele>539.44</ele>
        <time>2017-02-27T10:16:03Z</time>
      </trkpt>
      <trkpt lat="46.12341" lon="7.07547">
        <ele>541.36</ele>
        <time>2017-02-27T10:16:15Z</time>
      </trkpt>
      <trkpt lat="46.12346" lon="7.07566">
        <ele>541.36</ele>
        <time>2017-02-27T10:16:28Z</time>
      </trkpt>
      <trkpt lat="46.12351" lon="7.07585">
        <ele>541.84</ele>
        <time>2017-02-27T10:16:42Z</time>
      </trkpt>
      <trkpt lat="46.12358" lon="7.07606">
        <ele>543.28</ele>
        <time>2017-02-27T10:16:56Z</time>
      </trkpt>
      <trkpt lat="46.12364" lon="7.07625">
        <ele>545.69</ele>
        <time>2017-02-27T10:17:09Z</time>
      </trkpt>
      <trkpt lat="46.12369" lon="7.07643">
        <ele>545.69</ele>
        <time>2017-02-27T10:17:22Z</time>
      </trkpt>
      <trkpt lat="46.12371" lon="7.07656">
        <ele>545.69</ele>
        <time>2017-02-27T10:17:31Z</time>
      </trkpt>
      <trkpt lat="46.12367" lon="7.07664">
        <ele>547.61</ele>
        <time>2017-02-27T10:17:47Z</time>
      </trkpt>
      <trkpt lat="46.12369" lon="7.07673">
        <ele>548.09</ele>
        <time>2017-02-27T10:18:08Z</time>
      </trkpt>
      <trkpt lat="46.12369" lon="7.07676">
        <ele>547.61</ele>
        <time>2017-02-27T10:18:10Z</time>
      </trkpt>
      <trkpt lat="46.12369" lon="7.0768">
        <ele>547.61</ele>
        <time>2017-02-27T10:18:12Z</time>
      </trkpt>
      <trkpt lat="46.1237" lon="7.07693">
        <ele>546.17</ele>
        <time>2017-02-27T10:18:19Z</time>
      </trkpt>
      <trkpt lat="46.12369" lon="7.07706">
        <ele>544.72</ele>
        <time>2017-02-27T10:18:28Z</time>
      </trkpt>
      <trkpt lat="46.12365" lon="7.07715">
        <ele>543.28</ele>
        <time>2017-02-27T10:18:33Z</time>
      </trkpt>
      <trkpt lat="46.12363" lon="7.07737">
        <ele>540.88</ele>
        <time>2017-02-27T10:18:43Z</time>
      </trkpt>
      <trkpt lat="46.12357" lon="7.07757">
        <ele>537.99</ele>
        <time>2017-02-27T10:18:55Z</time>
      </trkpt>
      <trkpt lat="46.12356" lon="7.0777">
        <ele>536.55</ele>
        <time>2017-02-27T10:19:02Z</time>
      </trkpt>
      <trkpt lat="46.12348" lon="7.07795">
        <ele>532.71</ele>
        <time>2017-02-27T10:19:17Z</time>
      </trkpt>
      <trkpt lat="46.12343" lon="7.07832">
        <ele>529.34</ele>
        <time>2017-02-27T10:19:36Z</time>
      </trkpt>
      <trkpt lat="46.12341" lon="7.07866">
        <ele>525.98</ele>
        <time>2017-02-27T10:19:52Z</time>
      </trkpt>
      <trkpt lat="46.12339" lon="7.07882">
        <ele>523.58</ele>
        <time>2017-02-27T10:20:01Z</time>
      </trkpt>
      <trkpt lat="46.12335" lon="7.07912">
        <ele>517.81</ele>
        <time>2017-02-27T10:20:17Z</time>
      </trkpt>
      <trkpt lat="46.12329" lon="7.07935">
        <ele>513.48</ele>
        <time>2017-02-27T10:20:33Z</time>
      </trkpt>
      <trkpt lat="46.12326" lon="7.07957">
        <ele>508.67</ele>
        <time>2017-02-27T10:20:46Z</time>
      </trkpt>
      <trkpt lat="46.12332" lon="7.0799">
        <ele>505.79</ele>
        <time>2017-02-27T10:21:02Z</time>
      </trkpt>
      <trkpt lat="46.12334" lon="7.08025">
        <ele>500.98</ele>
        <time>2017-02-27T10:21:20Z</time>
      </trkpt>
      <trkpt lat="46.1234" lon="7.08061">
        <ele>494.74</ele>
        <time>2017-02-27T10:21:38Z</time>
      </trkpt>
      <trkpt lat="46.12346" lon="7.08093">
        <ele>489.93</ele>
        <time>2017-02-27T10:21:55Z</time>
      </trkpt>
      <trkpt lat="46.12347" lon="7.08136">
        <ele>488.01</ele>
        <time>2017-02-27T10:22:14Z</time>
      </trkpt>
      <trkpt lat="46.12342" lon="7.08175">
        <ele>488.01</ele>
        <time>2017-02-27T10:22:33Z</time>
      </trkpt>
      <trkpt lat="46.12351" lon="7.08207">
        <ele>488.01</ele>
        <time>2017-02-27T10:22:50Z</time>
      </trkpt>
      <trkpt lat="46.12352" lon="7.0821">
        <ele>488.01</ele>
        <time>2017-02-27T10:22:52Z</time>
      </trkpt>
      <trkpt lat="46.12363" lon="7.08229">
        <ele>486.56</ele>
        <time>2017-02-27T10:23:04Z</time>
      </trkpt>
      <trkpt lat="46.12377" lon="7.08255">
        <ele>486.56</ele>
        <time>2017-02-27T10:23:20Z</time>
      </trkpt>
      <trkpt lat="46.12384" lon="7.08287">
        <ele>485.6</ele>
        <time>2017-02-27T10:23:36Z</time>
      </trkpt>
      <trkpt lat="46.12395" lon="7.0831">
        <ele>483.68</ele>
        <time>2017-02-27T10:23:49Z</time>
      </trkpt>
      <trkpt lat="46.12404" lon="7.08336">
        <ele>481.28</ele>
        <time>2017-02-27T10:24:03Z</time>
      </trkpt>
      <trkpt lat="46.12414" lon="7.08367">
        <ele>473.59</ele>
        <time>2017-02-27T10:24:21Z</time>
      </trkpt>
      <trkpt lat="46.12431" lon="7.08392">
        <ele>468.78</ele>
        <time>2017-02-27T10:24:40Z</time>
      </trkpt>
      <trkpt lat="46.12443" lon="7.08415">
        <ele>466.38</ele>
        <time>2017-02-27T10:24:55Z</time>
      </trkpt>
      <trkpt lat="46.12451" lon="7.08426">
        <ele>464.93</ele>
        <time>2017-02-27T10:25:03Z</time>
      </trkpt>
      <trkpt lat="46.12466" lon="7.08442">
        <ele>461.09</ele>
        <time>2017-02-27T10:25:18Z</time>
      </trkpt>
      <trkpt lat="46.12478" lon="7.08453">
        <ele>460.61</ele>
        <time>2017-02-27T10:25:27Z</time>
      </trkpt>
      <trkpt lat="46.12483" lon="7.08462">
        <ele>459.17</ele>
        <time>2017-02-27T10:25:32Z</time>
      </trkpt>
      <trkpt lat="46.12495" lon="7.08494">
        <ele>463.49</ele>
        <time>2017-02-27T10:25:49Z</time>
      </trkpt>
      <trkpt lat="46.12511" lon="7.08521">
        <ele>464.45</ele>
        <time>2017-02-27T10:26:06Z</time>
      </trkpt>
      <trkpt lat="46.12527" lon="7.08549">
        <ele>466.86</ele>
        <time>2017-02-27T10:26:24Z</time>
      </trkpt>
      <trkpt lat="46.12529" lon="7.08573">
        <ele>466.86</ele>
        <time>2017-02-27T10:26:37Z</time>
      </trkpt>
      <trkpt lat="46.12538" lon="7.08593">
        <ele>465.42</ele>
        <time>2017-02-27T10:26:50Z</time>
      </trkpt>
      <trkpt lat="46.12544" lon="7.08611">
        <ele>466.38</ele>
        <time>2017-02-27T10:27:06Z</time>
      </trkpt>
      <trkpt lat="46.12543" lon="7.08612">
        <ele>465.9</ele>
        <time>2017-02-27T10:27:29Z</time>
      </trkpt>
      <trkpt lat="46.12543" lon="7.08611">
        <ele>466.38</ele>
        <time>2017-02-27T10:27:43Z</time>
      </trkpt>
    </trkseg>
  </trk>
</gpx>